SIA308K WSSS-EGLL
Flight info
| Callsign | SIA308K |
|---|---|
| Flight time | 12h 37m |
| Altitude | 34000 |
| Route | VMR9B VMR B469 VPK M751 VKB A334 HTY W14 PUT L759 TATUX/N0500F360 L759 BBS/N0445F260 W49 KKJ/N0499F360 L333 MERUN L750 DUDEG/N0494F380 L750 RANAH A846 RUBAD B475 DOLOS B449 MAMED P130 BODKA M747 SULEL N449 INDUR UN161 ERZ UL746 INB/N0487F400 UL746 ODERO DCT OPT DCT DEGET DCT BEGLA DCT DEXIT DCT INBED DCT BOMBI DCT ADKUV DCT SOGRI DCT DENUT L608 LOGAN |
| Aircraft | A388/J-SDE1E2E3GHIJ2J4J5M1P2RWXYZ/LB1D1 |
Departure
| Time | 2026-05-04 02:50 |
|---|---|
| Airport | Singapore Changi Airport (WSSS) |
Arrival
| Time | 2026-05-04 15:28 |
|---|---|
| Airport | London Heathrow Airport (EGLL) |
| Time | Latitude | Longitude | Altitude | Speed | Heading |
|---|---|---|---|---|---|
| 2026-05-04 02:23 | 1.36114 | 103.98744 | 35 ft | 0 kts | 114° |
| 2026-05-04 02:38 | 1.36114 | 103.98743 | 35 ft | 1 kts | 114° |
| 2026-05-04 02:38 | 1.36118 | 103.98734 | 34 ft | 2 kts | 114° |
| 2026-05-04 02:39 | 1.36123 | 103.98722 | 35 ft | 2 kts | 114° |
| 2026-05-04 02:39 | 1.36128 | 103.98711 | 33 ft | 2 kts | 114° |
| 2026-05-04 02:39 | 1.36131 | 103.98705 | 34 ft | 0 kts | 114° |
| 2026-05-04 02:39 | 1.36138 | 103.98687 | 33 ft | 3 kts | 110° |
| 2026-05-04 02:40 | 1.36139 | 103.98667 | 33 ft | 3 kts | 72° |
| 2026-05-04 02:40 | 1.36125 | 103.98654 | 33 ft | 0 kts | 24° |
| 2026-05-04 02:41 | 1.36188 | 103.98683 | 35 ft | 18 kts | 24° |
| 2026-05-04 02:41 | 1.36304 | 103.98736 | 35 ft | 19 kts | 24° |
| 2026-05-04 02:42 | 1.36416 | 103.98778 | 35 ft | 19 kts | 20° |
| 2026-05-04 02:42 | 1.36519 | 103.98815 | 35 ft | 17 kts | 6° |
| 2026-05-04 02:42 | 1.36592 | 103.98805 | 35 ft | 17 kts | 351° |
| 2026-05-04 02:42 | 1.36714 | 103.98811 | 35 ft | 19 kts | 19° |
| 2026-05-04 02:43 | 1.36837 | 103.98852 | 35 ft | 21 kts | 17° |
| 2026-05-04 02:43 | 1.36954 | 103.98916 | 35 ft | 18 kts | 66° |
| 2026-05-04 02:43 | 1.36939 | 103.99013 | 35 ft | 21 kts | 103° |
| 2026-05-04 02:43 | 1.36853 | 103.99228 | 35 ft | 46 kts | 112° |
| 2026-05-04 02:44 | 1.36721 | 103.99542 | 35 ft | 37 kts | 117° |
| 2026-05-04 02:44 | 1.36633 | 103.99762 | 35 ft | 12 kts | 114° |
| 2026-05-04 02:44 | 1.36559 | 103.99842 | 35 ft | 18 kts | 176° |
| 2026-05-04 02:44 | 1.36438 | 103.99799 | 35 ft | 27 kts | 199° |
| 2026-05-04 02:45 | 1.36185 | 103.99713 | 35 ft | 50 kts | 199° |
| 2026-05-04 02:45 | 1.35955 | 103.99600 | 35 ft | 23 kts | 204° |
| 2026-05-04 02:45 | 1.35781 | 103.99521 | 35 ft | 39 kts | 205° |
| 2026-05-04 02:45 | 1.35460 | 103.99372 | 35 ft | 62 kts | 205° |
| 2026-05-04 02:46 | 1.35182 | 103.99263 | 35 ft | 29 kts | 197° |
| 2026-05-04 02:46 | 1.35006 | 103.99197 | 35 ft | 24 kts | 200° |
| 2026-05-04 02:46 | 1.34865 | 103.99137 | 35 ft | 20 kts | 205° |
| 2026-05-04 02:46 | 1.34749 | 103.99088 | 35 ft | 17 kts | 198° |
| 2026-05-04 02:47 | 1.34649 | 103.99050 | 35 ft | 14 kts | 207° |
| 2026-05-04 02:47 | 1.34569 | 103.99008 | 35 ft | 13 kts | 207° |
| 2026-05-04 02:47 | 1.34453 | 103.98962 | 35 ft | 25 kts | 199° |
| 2026-05-04 02:47 | 1.34256 | 103.98889 | 35 ft | 33 kts | 204° |
| 2026-05-04 02:48 | 1.34020 | 103.98784 | 35 ft | 41 kts | 204° |
| 2026-05-04 02:48 | 1.33779 | 103.98679 | 35 ft | 37 kts | 202° |
| 2026-05-04 02:48 | 1.33533 | 103.98581 | 35 ft | 38 kts | 201° |
| 2026-05-04 02:48 | 1.33291 | 103.98473 | 35 ft | 39 kts | 208° |
| 2026-05-04 02:49 | 1.33109 | 103.98403 | 35 ft | 24 kts | 169° |
| 2026-05-04 02:49 | 1.33020 | 103.98538 | 35 ft | 26 kts | 74° |
| 2026-05-04 02:49 | 1.33079 | 103.98580 | 35 ft | 31 kts | 21° |
| 2026-05-04 02:49 | 1.33501 | 103.98760 | 35 ft | 101 kts | 23° |
| 2026-05-04 02:50 | 1.34330 | 103.99108 | 35 ft | 155 kts | 23° |
| 2026-05-04 02:50 | 1.35438 | 103.99580 | 53 ft | 186 kts | 23° |
| 2026-05-04 02:50 | 1.36491 | 104.00030 | 736 ft | 165 kts | 22° |
| 2026-05-04 02:50 | 1.37509 | 104.00456 | 1290 ft | 169 kts | 22° |
| 2026-05-04 02:51 | 1.38690 | 104.00914 | 1481 ft | 196 kts | 19° |
| 2026-05-04 02:51 | 1.39981 | 104.01359 | 2042 ft | 206 kts | 19° |
| 2026-05-04 02:51 | 1.41238 | 104.01843 | 2224 ft | 196 kts | 24° |
| 2026-05-04 02:51 | 1.42525 | 104.02484 | 2639 ft | 209 kts | 29° |
| 2026-05-04 02:52 | 1.43784 | 104.03201 | 3378 ft | 216 kts | 26° |
| 2026-05-04 02:52 | 1.45263 | 104.03882 | 3569 ft | 253 kts | 23° |
| 2026-05-04 02:52 | 1.46946 | 104.04564 | 4013 ft | 269 kts | 21° |
| 2026-05-04 02:52 | 1.48755 | 104.05077 | 4704 ft | 273 kts | 2° |
| 2026-05-04 02:53 | 1.50623 | 104.04791 | 5409 ft | 274 kts | 336° |
| 2026-05-04 02:53 | 1.52308 | 104.03896 | 6074 ft | 277 kts | 329° |
| 2026-05-04 02:53 | 1.53977 | 104.02939 | 6722 ft | 280 kts | 330° |
| 2026-05-04 02:53 | 1.55674 | 104.01983 | 7360 ft | 282 kts | 330° |
| 2026-05-04 02:54 | 1.57402 | 104.01029 | 8002 ft | 286 kts | 331° |
| 2026-05-04 02:54 | 1.59157 | 104.00074 | 8665 ft | 288 kts | 331° |
| 2026-05-04 02:54 | 1.60934 | 103.99113 | 9285 ft | 292 kts | 332° |
| 2026-05-04 02:54 | 1.62731 | 103.98144 | 9914 ft | 295 kts | 332° |
| 2026-05-04 02:55 | 1.66517 | 103.96104 | 10446 ft | 327 kts | 332° |
| 2026-05-04 02:55 | 1.68573 | 103.94996 | 10600 ft | 343 kts | 332° |
| 2026-05-04 02:55 | 1.70699 | 103.93848 | 11039 ft | 350 kts | 332° |
| 2026-05-04 02:56 | 1.72851 | 103.92687 | 11572 ft | 353 kts | 332° |
| 2026-05-04 02:56 | 1.75089 | 103.91676 | 12096 ft | 356 kts | 342° |
| 2026-05-04 02:56 | 1.77500 | 103.91090 | 12643 ft | 358 kts | 352° |
| 2026-05-04 02:56 | 1.79992 | 103.90902 | 13164 ft | 361 kts | 358° |
| 2026-05-04 02:57 | 1.82513 | 103.90762 | 13699 ft | 364 kts | 357° |
| 2026-05-04 02:57 | 1.85056 | 103.90602 | 14176 ft | 367 kts | 357° |
| 2026-05-04 02:57 | 1.87617 | 103.90435 | 14642 ft | 370 kts | 357° |
| 2026-05-04 02:57 | 1.90182 | 103.90269 | 15117 ft | 373 kts | 357° |
| 2026-05-04 02:58 | 1.92767 | 103.90102 | 15584 ft | 375 kts | 358° |
| 2026-05-04 02:58 | 1.95383 | 103.89935 | 16047 ft | 378 kts | 358° |
| 2026-05-04 02:58 | 1.97981 | 103.89769 | 16493 ft | 381 kts | 358° |
| 2026-05-04 02:58 | 2.00629 | 103.89601 | 16950 ft | 384 kts | 358° |
| 2026-05-04 02:59 | 2.03311 | 103.89430 | 17406 ft | 386 kts | 358° |
| 2026-05-04 02:59 | 2.06002 | 103.89259 | 17844 ft | 389 kts | 358° |
| 2026-05-04 02:59 | 2.08684 | 103.89088 | 18271 ft | 392 kts | 358° |
| 2026-05-04 02:59 | 2.11416 | 103.88914 | 18648 ft | 394 kts | 358° |
| 2026-05-04 03:00 | 2.14158 | 103.88740 | 19031 ft | 396 kts | 358° |
| 2026-05-04 03:00 | 2.16905 | 103.88565 | 19392 ft | 399 kts | 358° |
| 2026-05-04 03:00 | 2.19677 | 103.88388 | 19765 ft | 401 kts | 358° |
| 2026-05-04 03:00 | 2.22478 | 103.88210 | 20141 ft | 403 kts | 358° |
| 2026-05-04 03:01 | 2.25250 | 103.88033 | 20477 ft | 406 kts | 358° |
| 2026-05-04 03:01 | 2.28096 | 103.87852 | 20848 ft | 408 kts | 358° |
| 2026-05-04 03:01 | 2.30941 | 103.87671 | 21204 ft | 411 kts | 358° |
| 2026-05-04 03:01 | 2.33796 | 103.87489 | 21553 ft | 413 kts | 358° |
| 2026-05-04 03:02 | 2.36671 | 103.87237 | 21880 ft | 416 kts | 353° |
| 2026-05-04 03:02 | 2.39509 | 103.86621 | 22211 ft | 420 kts | 345° |
| 2026-05-04 03:02 | 2.42261 | 103.85626 | 22552 ft | 423 kts | 337° |
| 2026-05-04 03:02 | 2.44939 | 103.84378 | 22798 ft | 427 kts | 336° |
| 2026-05-04 03:03 | 2.47645 | 103.83132 | 23144 ft | 429 kts | 337° |
| 2026-05-04 03:03 | 2.50366 | 103.81889 | 23479 ft | 431 kts | 337° |
| 2026-05-04 03:03 | 2.53101 | 103.80642 | 23743 ft | 433 kts | 337° |
| 2026-05-04 03:03 | 2.55848 | 103.79388 | 24027 ft | 434 kts | 336° |
| 2026-05-04 03:04 | 2.58583 | 103.78139 | 24283 ft | 436 kts | 336° |
| 2026-05-04 03:04 | 2.61280 | 103.76906 | 24551 ft | 437 kts | 336° |
| 2026-05-04 03:04 | 2.64022 | 103.75652 | 24813 ft | 439 kts | 336° |
| 2026-05-04 03:04 | 2.66787 | 103.74387 | 25074 ft | 440 kts | 336° |
| 2026-05-04 03:05 | 2.69574 | 103.73112 | 25341 ft | 442 kts | 336° |
| 2026-05-04 03:05 | 2.72357 | 103.71838 | 25565 ft | 443 kts | 336° |
| 2026-05-04 03:05 | 2.75168 | 103.70561 | 25788 ft | 445 kts | 337° |
| 2026-05-04 03:05 | 2.78001 | 103.69294 | 26032 ft | 446 kts | 337° |
| 2026-05-04 03:06 | 2.80815 | 103.68039 | 26272 ft | 448 kts | 337° |
| 2026-05-04 03:06 | 2.83623 | 103.66787 | 26506 ft | 449 kts | 337° |
| 2026-05-04 03:06 | 2.86479 | 103.65511 | 26745 ft | 451 kts | 337° |
| 2026-05-04 03:06 | 2.89342 | 103.64230 | 27003 ft | 452 kts | 336° |
| 2026-05-04 03:07 | 2.92224 | 103.62942 | 27261 ft | 454 kts | 337° |
| 2026-05-04 03:07 | 2.95116 | 103.61656 | 27514 ft | 455 kts | 337° |
| 2026-05-04 03:07 | 2.97968 | 103.60389 | 27765 ft | 457 kts | 337° |
| 2026-05-04 03:07 | 3.00878 | 103.59095 | 28072 ft | 458 kts | 337° |
| 2026-05-04 03:08 | 3.03780 | 103.57805 | 28333 ft | 460 kts | 336° |
| 2026-05-04 03:08 | 3.06707 | 103.56502 | 28620 ft | 462 kts | 336° |
| 2026-05-04 03:08 | 3.09649 | 103.55193 | 28890 ft | 463 kts | 336° |
| 2026-05-04 03:08 | 3.12540 | 103.53906 | 29170 ft | 465 kts | 336° |
| 2026-05-04 03:09 | 3.15503 | 103.52587 | 29464 ft | 467 kts | 336° |
| 2026-05-04 03:09 | 3.18476 | 103.51257 | 29761 ft | 469 kts | 336° |
| 2026-05-04 03:09 | 3.21463 | 103.49913 | 30072 ft | 471 kts | 336° |
| 2026-05-04 03:09 | 3.24453 | 103.48564 | 30338 ft | 473 kts | 336° |
| 2026-05-04 03:10 | 3.27459 | 103.47209 | 30631 ft | 474 kts | 336° |
| 2026-05-04 03:10 | 3.30446 | 103.45864 | 30921 ft | 475 kts | 336° |
| 2026-05-04 03:10 | 3.33466 | 103.44504 | 31204 ft | 477 kts | 336° |
| 2026-05-04 03:10 | 3.36496 | 103.43140 | 31501 ft | 478 kts | 336° |
| 2026-05-04 03:11 | 3.39497 | 103.41791 | 31785 ft | 479 kts | 337° |
| 2026-05-04 03:11 | 3.42557 | 103.40511 | 32071 ft | 481 kts | 339° |
| 2026-05-04 03:11 | 3.45643 | 103.39308 | 32357 ft | 482 kts | 340° |
| 2026-05-04 03:11 | 3.48772 | 103.38101 | 32642 ft | 483 kts | 339° |
| 2026-05-04 03:12 | 3.51898 | 103.36885 | 32922 ft | 485 kts | 339° |
| 2026-05-04 03:12 | 3.55042 | 103.35648 | 33200 ft | 487 kts | 339° |
| 2026-05-04 03:12 | 3.58177 | 103.34407 | 33476 ft | 488 kts | 339° |
| 2026-05-04 03:12 | 3.61337 | 103.33153 | 33763 ft | 490 kts | 339° |
| 2026-05-04 03:13 | 3.64484 | 103.31902 | 33968 ft | 493 kts | 339° |
| 2026-05-04 03:13 | 3.70831 | 103.29379 | 34153 ft | 503 kts | 339° |
| 2026-05-04 03:13 | 3.74082 | 103.28087 | 34466 ft | 502 kts | 339° |
| 2026-05-04 03:14 | 3.77283 | 103.26814 | 34802 ft | 501 kts | 339° |
| 2026-05-04 03:14 | 3.80497 | 103.25537 | 34918 ft | 506 kts | 339° |
| 2026-05-04 03:14 | 3.83766 | 103.24237 | 34912 ft | 514 kts | 339° |
| 2026-05-04 03:15 | 3.90423 | 103.21591 | 34911 ft | 528 kts | 339° |
| 2026-05-04 03:15 | 3.97271 | 103.18868 | 34916 ft | 541 kts | 339° |
| 2026-05-04 03:16 | 4.04314 | 103.16067 | 34916 ft | 552 kts | 339° |
| 2026-05-04 03:16 | 4.07880 | 103.14648 | 35434 ft | 544 kts | 339° |
| 2026-05-04 03:16 | 4.11341 | 103.13270 | 36472 ft | 528 kts | 339° |
| 2026-05-04 03:16 | 4.14698 | 103.11933 | 37215 ft | 520 kts | 339° |
| 2026-05-04 03:17 | 4.18045 | 103.10599 | 37707 ft | 516 kts | 339° |
| 2026-05-04 03:17 | 4.21357 | 103.09279 | 38073 ft | 515 kts | 339° |
| 2026-05-04 03:17 | 4.24655 | 103.07965 | 38405 ft | 514 kts | 339° |
| 2026-05-04 03:17 | 4.27978 | 103.06641 | 38705 ft | 513 kts | 339° |
| 2026-05-04 03:18 | 4.31267 | 103.05330 | 38974 ft | 512 kts | 339° |
| 2026-05-04 03:18 | 4.34574 | 103.04011 | 39232 ft | 511 kts | 339° |
| 2026-05-04 03:18 | 4.37876 | 103.02695 | 39473 ft | 511 kts | 339° |
| 2026-05-04 03:18 | 4.41164 | 103.01384 | 39707 ft | 510 kts | 339° |
| 2026-05-04 03:19 | 4.44433 | 103.00081 | 39951 ft | 510 kts | 339° |
| 2026-05-04 03:19 | 4.47730 | 102.98766 | 40208 ft | 509 kts | 339° |
| 2026-05-04 03:19 | 4.50940 | 102.97486 | 40451 ft | 508 kts | 339° |
| 2026-05-04 03:19 | 4.54222 | 102.96177 | 40674 ft | 507 kts | 339° |
| 2026-05-04 03:20 | 4.57499 | 102.94870 | 40889 ft | 507 kts | 339° |
| 2026-05-04 03:20 | 4.60774 | 102.93563 | 41104 ft | 506 kts | 339° |
| 2026-05-04 03:20 | 4.64044 | 102.92259 | 41315 ft | 506 kts | 339° |
| 2026-05-04 03:20 | 4.67301 | 102.90959 | 41529 ft | 506 kts | 339° |
| 2026-05-04 03:21 | 4.70527 | 102.89672 | 41730 ft | 505 kts | 339° |
| 2026-05-04 03:21 | 4.73787 | 102.88371 | 41934 ft | 505 kts | 339° |
| 2026-05-04 03:21 | 4.77025 | 102.87079 | 42111 ft | 504 kts | 339° |
| 2026-05-04 03:21 | 4.80284 | 102.85778 | 42303 ft | 504 kts | 339° |
| 2026-05-04 03:22 | 4.83541 | 102.84479 | 42481 ft | 503 kts | 339° |
| 2026-05-04 03:22 | 4.86750 | 102.83198 | 42711 ft | 502 kts | 339° |
| 2026-05-04 03:22 | 4.89982 | 102.81909 | 42902 ft | 501 kts | 339° |
| 2026-05-04 03:22 | 4.93222 | 102.80615 | 43063 ft | 501 kts | 339° |
| 2026-05-04 03:23 | 4.96440 | 102.79331 | 43223 ft | 500 kts | 339° |
| 2026-05-04 03:23 | 4.99671 | 102.78041 | 43380 ft | 500 kts | 339° |
| 2026-05-04 03:23 | 5.02902 | 102.76752 | 43570 ft | 498 kts | 339° |
| 2026-05-04 03:23 | 5.06109 | 102.75471 | 43946 ft | 494 kts | 339° |
| 2026-05-04 03:24 | 5.09235 | 102.74222 | 44108 ft | 493 kts | 339° |
| 2026-05-04 03:24 | 5.12423 | 102.72948 | 44254 ft | 493 kts | 339° |
| 2026-05-04 03:24 | 5.15602 | 102.71678 | 44373 ft | 492 kts | 339° |
| 2026-05-04 03:24 | 5.18766 | 102.70413 | 44491 ft | 492 kts | 340° |
| 2026-05-04 03:25 | 5.21934 | 102.69147 | 44606 ft | 492 kts | 340° |
| 2026-05-04 03:25 | 5.28277 | 102.66611 | 44774 ft | 491 kts | 340° |
| 2026-05-04 03:26 | 5.34622 | 102.64074 | 44944 ft | 490 kts | 340° |
| 2026-05-04 03:26 | 5.40869 | 102.61576 | 45099 ft | 489 kts | 340° |
| 2026-05-04 03:27 | 5.47149 | 102.59064 | 45250 ft | 488 kts | 340° |
| 2026-05-04 03:27 | 5.53429 | 102.56551 | 45390 ft | 487 kts | 340° |
| 2026-05-04 03:28 | 5.59722 | 102.54032 | 45523 ft | 486 kts | 340° |
| 2026-05-04 03:28 | 5.64939 | 102.51943 | 45634 ft | 485 kts | 340° |
| 2026-05-04 03:29 | 5.72211 | 102.49031 | 45743 ft | 484 kts | 340° |
| 2026-05-04 03:29 | 5.78426 | 102.46541 | 45841 ft | 482 kts | 340° |
| 2026-05-04 03:30 | 5.83561 | 102.44482 | 45920 ft | 481 kts | 340° |
| 2026-05-04 03:30 | 5.90704 | 102.41618 | 46021 ft | 479 kts | 340° |
| 2026-05-04 03:31 | 5.95888 | 102.39540 | 46080 ft | 478 kts | 339° |
| 2026-05-04 03:31 | 6.02057 | 102.37067 | 46147 ft | 477 kts | 339° |
| 2026-05-04 03:31 | 6.05165 | 102.35840 | 45981 ft | 481 kts | 340° |
| 2026-05-04 03:32 | 6.08282 | 102.34621 | 45994 ft | 481 kts | 339° |
| 2026-05-04 03:32 | 6.11299 | 102.33203 | 45662 ft | 485 kts | 328° |
| 2026-05-04 03:32 | 6.14054 | 102.31222 | 45079 ft | 492 kts | 318° |
| 2026-05-04 03:32 | 6.16405 | 102.28784 | 44554 ft | 498 kts | 308° |
| 2026-05-04 03:33 | 6.18384 | 102.25862 | 43972 ft | 504 kts | 298° |
| 2026-05-04 03:33 | 6.19811 | 102.22722 | 43477 ft | 508 kts | 292° |
| 2026-05-04 03:33 | 6.21084 | 102.19426 | 43045 ft | 512 kts | 293° |
| 2026-05-04 03:33 | 6.22402 | 102.16096 | 42650 ft | 514 kts | 293° |
| 2026-05-04 03:34 | 6.23734 | 102.12749 | 42321 ft | 516 kts | 293° |
| 2026-05-04 03:34 | 6.25067 | 102.09396 | 42010 ft | 519 kts | 293° |
| 2026-05-04 03:34 | 6.26406 | 102.06024 | 41725 ft | 521 kts | 293° |
| 2026-05-04 03:34 | 6.27764 | 102.02642 | 41454 ft | 523 kts | 293° |
| 2026-05-04 03:35 | 6.29136 | 101.99246 | 41185 ft | 525 kts | 293° |
| 2026-05-04 03:35 | 6.30511 | 101.95844 | 40954 ft | 526 kts | 293° |
| 2026-05-04 03:35 | 6.31875 | 101.92462 | 40845 ft | 526 kts | 293° |
| 2026-05-04 03:35 | 6.33237 | 101.89082 | 40743 ft | 525 kts | 293° |
| 2026-05-04 03:36 | 6.34598 | 101.85700 | 40569 ft | 526 kts | 293° |
| 2026-05-04 03:36 | 6.35943 | 101.82357 | 40445 ft | 526 kts | 293° |
| 2026-05-04 03:36 | 6.37308 | 101.78962 | 40355 ft | 525 kts | 293° |
| 2026-05-04 03:37 | 6.40031 | 101.72189 | 40185 ft | 524 kts | 293° |
| 2026-05-04 03:37 | 6.42758 | 101.65403 | 40004 ft | 523 kts | 293° |
| 2026-05-04 03:38 | 6.45465 | 101.58661 | 39849 ft | 523 kts | 293° |
| 2026-05-04 03:38 | 6.48175 | 101.51913 | 39712 ft | 521 kts | 293° |
| 2026-05-04 03:39 | 6.50888 | 101.45153 | 39586 ft | 520 kts | 293° |
| 2026-05-04 03:39 | 6.53581 | 101.38440 | 39452 ft | 520 kts | 293° |
| 2026-05-04 03:40 | 6.56280 | 101.31709 | 39344 ft | 518 kts | 293° |
| 2026-05-04 03:40 | 6.58959 | 101.25025 | 39273 ft | 516 kts | 293° |
| 2026-05-04 03:41 | 6.61626 | 101.18368 | 39182 ft | 515 kts | 293° |
| 2026-05-04 03:41 | 6.64299 | 101.11693 | 39067 ft | 514 kts | 293° |
| 2026-05-04 03:42 | 6.66966 | 101.05029 | 38970 ft | 513 kts | 292° |
| 2026-05-04 03:42 | 6.69612 | 100.98417 | 38877 ft | 512 kts | 292° |
| 2026-05-04 03:43 | 6.72256 | 100.91805 | 38769 ft | 511 kts | 293° |
| 2026-05-04 03:43 | 6.73578 | 100.88499 | 38618 ft | 513 kts | 293° |
| 2026-05-04 03:43 | 6.74908 | 100.85171 | 38565 ft | 512 kts | 293° |
| 2026-05-04 03:44 | 6.77557 | 100.78543 | 38430 ft | 512 kts | 293° |
| 2026-05-04 03:44 | 6.78869 | 100.75259 | 38264 ft | 513 kts | 293° |
| 2026-05-04 03:44 | 6.80217 | 100.71884 | 38162 ft | 513 kts | 293° |
| 2026-05-04 03:45 | 6.82852 | 100.65282 | 38022 ft | 511 kts | 292° |
| 2026-05-04 03:45 | 6.85490 | 100.58673 | 37885 ft | 510 kts | 292° |
| 2026-05-04 03:46 | 6.88124 | 100.52069 | 37758 ft | 508 kts | 292° |
| 2026-05-04 03:46 | 6.90752 | 100.45477 | 37606 ft | 507 kts | 292° |
| 2026-05-04 03:47 | 6.93660 | 100.39033 | 37452 ft | 505 kts | 301° |
| 2026-05-04 03:47 | 6.97618 | 100.33236 | 37311 ft | 502 kts | 308° |
| 2026-05-04 03:48 | 7.01851 | 100.27658 | 37150 ft | 502 kts | 308° |
| 2026-05-04 03:48 | 7.06048 | 100.22089 | 36989 ft | 502 kts | 308° |
| 2026-05-04 03:49 | 7.10238 | 100.16538 | 36746 ft | 496 kts | 308° |
| 2026-05-04 03:49 | 7.12320 | 100.13779 | 35934 ft | 496 kts | 308° |
| 2026-05-04 03:49 | 7.14414 | 100.11005 | 35320 ft | 497 kts | 308° |
| 2026-05-04 03:49 | 7.16492 | 100.08254 | 35063 ft | 503 kts | 308° |
| 2026-05-04 03:50 | 7.18593 | 100.05471 | 34946 ft | 505 kts | 307° |
| 2026-05-04 03:50 | 7.22842 | 99.99838 | 34929 ft | 505 kts | 307° |
| 2026-05-04 03:51 | 7.27081 | 99.94218 | 34925 ft | 504 kts | 307° |
| 2026-05-04 03:51 | 7.31318 | 99.88598 | 34926 ft | 503 kts | 308° |
| 2026-05-04 03:52 | 7.35546 | 99.82990 | 34933 ft | 502 kts | 307° |
| 2026-05-04 03:52 | 7.39770 | 99.77384 | 34937 ft | 501 kts | 307° |
| 2026-05-04 03:53 | 7.43979 | 99.71795 | 34937 ft | 500 kts | 307° |
| 2026-05-04 03:53 | 7.48182 | 99.66213 | 34938 ft | 499 kts | 307° |
| 2026-05-04 03:54 | 7.51920 | 99.60345 | 34938 ft | 497 kts | 296° |
| 2026-05-04 03:54 | 7.54827 | 99.54045 | 34938 ft | 495 kts | 294° |
| 2026-05-04 03:55 | 7.57735 | 99.47743 | 34937 ft | 500 kts | 295° |
| 2026-05-04 03:55 | 7.60677 | 99.41366 | 34930 ft | 505 kts | 294° |
| 2026-05-04 03:56 | 7.63633 | 99.34944 | 34926 ft | 505 kts | 294° |
| 2026-05-04 03:56 | 7.66587 | 99.28520 | 34924 ft | 505 kts | 294° |
| 2026-05-04 03:57 | 7.69520 | 99.22139 | 34928 ft | 505 kts | 294° |
| 2026-05-04 03:57 | 7.72471 | 99.15718 | 34928 ft | 505 kts | 294° |
| 2026-05-04 03:58 | 7.76898 | 99.06077 | 34907 ft | 506 kts | 294° |
| 2026-05-04 03:58 | 7.79853 | 98.99637 | 34932 ft | 506 kts | 294° |
| 2026-05-04 03:59 | 7.82810 | 98.93191 | 34938 ft | 507 kts | 294° |
| 2026-05-04 03:59 | 7.85770 | 98.86734 | 34943 ft | 507 kts | 294° |
| 2026-05-04 04:00 | 7.88731 | 98.80274 | 34943 ft | 508 kts | 294° |
| 2026-05-04 04:00 | 7.91696 | 98.73802 | 34947 ft | 508 kts | 294° |
| 2026-05-04 04:01 | 7.94660 | 98.67326 | 34945 ft | 508 kts | 294° |
| 2026-05-04 04:01 | 7.97621 | 98.60857 | 34941 ft | 508 kts | 294° |
| 2026-05-04 04:02 | 8.00582 | 98.54383 | 34940 ft | 508 kts | 294° |
| 2026-05-04 04:02 | 8.03532 | 98.47930 | 34937 ft | 508 kts | 294° |
| 2026-05-04 04:03 | 8.06475 | 98.41489 | 34944 ft | 507 kts | 294° |
| 2026-05-04 04:03 | 8.09458 | 98.35085 | 34939 ft | 507 kts | 297° |
| 2026-05-04 04:04 | 8.13428 | 98.29198 | 34930 ft | 509 kts | 310° |
| 2026-05-04 04:04 | 8.18471 | 98.24196 | 34917 ft | 509 kts | 317° |
| 2026-05-04 04:05 | 8.23703 | 98.19375 | 34933 ft | 509 kts | 317° |
| 2026-05-04 04:05 | 8.28930 | 98.14541 | 34949 ft | 509 kts | 317° |
| 2026-05-04 04:06 | 8.34152 | 98.09719 | 34946 ft | 509 kts | 317° |
| 2026-05-04 04:06 | 8.39358 | 98.04911 | 34946 ft | 508 kts | 317° |
| 2026-05-04 04:07 | 8.44570 | 98.00096 | 34947 ft | 508 kts | 317° |
| 2026-05-04 04:07 | 8.49779 | 97.95281 | 34913 ft | 508 kts | 317° |
| 2026-05-04 04:08 | 8.54992 | 97.90456 | 34929 ft | 508 kts | 317° |
| 2026-05-04 04:08 | 8.60206 | 97.85628 | 34924 ft | 509 kts | 317° |
| 2026-05-04 04:09 | 8.65407 | 97.80812 | 34929 ft | 510 kts | 317° |
| 2026-05-04 04:09 | 8.70636 | 97.75966 | 34932 ft | 510 kts | 317° |
| 2026-05-04 04:10 | 8.75874 | 97.71110 | 34935 ft | 511 kts | 317° |
| 2026-05-04 04:10 | 8.81114 | 97.66250 | 34937 ft | 512 kts | 317° |
| 2026-05-04 04:11 | 8.86359 | 97.61384 | 34941 ft | 512 kts | 317° |
| 2026-05-04 04:11 | 8.91599 | 97.56500 | 34950 ft | 512 kts | 317° |
| 2026-05-04 04:12 | 8.96790 | 97.51658 | 34949 ft | 511 kts | 317° |
| 2026-05-04 04:12 | 9.02023 | 97.46777 | 34943 ft | 511 kts | 318° |
| 2026-05-04 04:13 | 9.07240 | 97.41910 | 34949 ft | 510 kts | 317° |
| 2026-05-04 04:13 | 9.12448 | 97.37049 | 34934 ft | 510 kts | 317° |
| 2026-05-04 04:14 | 9.17655 | 97.32187 | 34939 ft | 509 kts | 317° |
| 2026-05-04 04:14 | 9.22855 | 97.27329 | 34934 ft | 508 kts | 317° |
| 2026-05-04 04:15 | 9.28048 | 97.22476 | 34929 ft | 508 kts | 317° |
| 2026-05-04 04:15 | 9.33239 | 97.17622 | 34923 ft | 508 kts | 317° |
| 2026-05-04 04:16 | 9.38426 | 97.12770 | 34923 ft | 509 kts | 317° |
| 2026-05-04 04:16 | 9.43620 | 97.07910 | 34945 ft | 508 kts | 317° |
| 2026-05-04 04:17 | 9.48810 | 97.03051 | 34945 ft | 508 kts | 317° |
| 2026-05-04 04:17 | 9.53995 | 96.98194 | 34935 ft | 508 kts | 318° |
| 2026-05-04 04:18 | 9.59184 | 96.93332 | 34934 ft | 508 kts | 318° |
| 2026-05-04 04:18 | 9.64371 | 96.88470 | 34934 ft | 508 kts | 318° |
| 2026-05-04 04:19 | 9.68684 | 96.84426 | 34938 ft | 508 kts | 317° |
| 2026-05-04 04:19 | 9.73866 | 96.79565 | 34938 ft | 508 kts | 318° |
| 2026-05-04 04:20 | 9.79048 | 96.74702 | 34935 ft | 507 kts | 317° |
| 2026-05-04 04:20 | 9.84228 | 96.69838 | 34935 ft | 508 kts | 317° |
| 2026-05-04 04:21 | 9.89412 | 96.64967 | 34925 ft | 509 kts | 317° |
| 2026-05-04 04:21 | 9.94605 | 96.60086 | 34926 ft | 509 kts | 317° |
| 2026-05-04 04:22 | 9.99775 | 96.55188 | 34943 ft | 509 kts | 315° |
| 2026-05-04 04:22 | 10.04486 | 96.49833 | 34941 ft | 508 kts | 311° |
| 2026-05-04 04:23 | 10.09165 | 96.44440 | 34891 ft | 510 kts | 311° |
| 2026-05-04 04:23 | 10.13833 | 96.39064 | 34927 ft | 512 kts | 311° |
| 2026-05-04 04:24 | 10.18539 | 96.33636 | 34931 ft | 513 kts | 311° |
| 2026-05-04 04:24 | 10.23258 | 96.28186 | 34940 ft | 514 kts | 311° |
| 2026-05-04 04:25 | 10.27978 | 96.22733 | 34951 ft | 514 kts | 311° |
| 2026-05-04 04:25 | 10.32699 | 96.17277 | 34944 ft | 515 kts | 311° |
| 2026-05-04 04:26 | 10.37428 | 96.11808 | 34949 ft | 515 kts | 311° |
| 2026-05-04 04:26 | 10.42130 | 96.06368 | 34953 ft | 514 kts | 310° |
| 2026-05-04 04:27 | 10.46840 | 96.00916 | 34950 ft | 513 kts | 310° |
| 2026-05-04 04:27 | 10.51550 | 95.95462 | 34944 ft | 513 kts | 310° |
| 2026-05-04 04:28 | 10.56245 | 95.90022 | 34950 ft | 511 kts | 310° |
| 2026-05-04 04:28 | 10.60926 | 95.84595 | 34944 ft | 509 kts | 310° |
| 2026-05-04 04:29 | 10.65590 | 95.79185 | 34933 ft | 508 kts | 310° |
| 2026-05-04 04:29 | 10.70245 | 95.73784 | 34922 ft | 507 kts | 310° |
| 2026-05-04 04:30 | 10.74889 | 95.68392 | 34945 ft | 506 kts | 310° |
| 2026-05-04 04:30 | 10.79511 | 95.63023 | 34934 ft | 504 kts | 310° |
| 2026-05-04 04:31 | 10.84127 | 95.57658 | 34920 ft | 503 kts | 310° |
| 2026-05-04 04:31 | 10.88735 | 95.52299 | 34923 ft | 502 kts | 310° |
| 2026-05-04 04:32 | 10.93331 | 95.46953 | 34920 ft | 502 kts | 310° |
| 2026-05-04 04:32 | 10.97930 | 95.41600 | 34919 ft | 502 kts | 310° |
| 2026-05-04 04:33 | 11.02526 | 95.36247 | 34922 ft | 502 kts | 310° |
| 2026-05-04 04:33 | 11.07093 | 95.30926 | 34919 ft | 503 kts | 310° |
| 2026-05-04 04:34 | 11.11701 | 95.25554 | 34922 ft | 504 kts | 310° |
| 2026-05-04 04:34 | 11.16310 | 95.20178 | 34928 ft | 504 kts | 310° |
| 2026-05-04 04:35 | 11.20922 | 95.14795 | 34934 ft | 505 kts | 310° |
| 2026-05-04 04:35 | 11.25526 | 95.09420 | 34939 ft | 505 kts | 310° |
| 2026-05-04 04:36 | 11.30142 | 95.04028 | 34941 ft | 505 kts | 310° |
| 2026-05-04 04:36 | 11.34755 | 94.98636 | 34940 ft | 505 kts | 310° |
| 2026-05-04 04:37 | 11.43959 | 94.87869 | 34930 ft | 503 kts | 310° |
| 2026-05-04 04:38 | 11.48545 | 94.82500 | 34905 ft | 502 kts | 310° |
| 2026-05-04 04:38 | 11.53133 | 94.77126 | 34922 ft | 503 kts | 310° |
| 2026-05-04 04:39 | 11.57718 | 94.71752 | 34922 ft | 502 kts | 310° |
| 2026-05-04 04:39 | 11.62298 | 94.66381 | 34925 ft | 502 kts | 310° |
| 2026-05-04 04:40 | 11.66879 | 94.61007 | 34927 ft | 502 kts | 310° |
| 2026-05-04 04:40 | 11.71457 | 94.55632 | 34906 ft | 502 kts | 310° |
| 2026-05-04 04:41 | 11.76011 | 94.50283 | 34907 ft | 503 kts | 310° |
| 2026-05-04 04:41 | 11.80605 | 94.44885 | 34923 ft | 504 kts | 310° |
| 2026-05-04 04:42 | 11.85368 | 94.39636 | 34930 ft | 505 kts | 315° |
| 2026-05-04 04:42 | 11.90427 | 94.34648 | 34931 ft | 506 kts | 315° |
| 2026-05-04 04:43 | 11.95476 | 94.29641 | 34933 ft | 506 kts | 315° |
| 2026-05-04 04:43 | 12.00523 | 94.24633 | 34938 ft | 506 kts | 315° |
| 2026-05-04 04:44 | 12.05576 | 94.19617 | 34941 ft | 506 kts | 315° |
| 2026-05-04 04:44 | 12.10621 | 94.14607 | 34941 ft | 505 kts | 314° |
| 2026-05-04 04:45 | 12.15649 | 94.09610 | 34937 ft | 504 kts | 314° |
| 2026-05-04 04:47 | 12.33227 | 93.92245 | 34910 ft | 503 kts | 315° |
| 2026-05-04 04:47 | 12.38265 | 93.87289 | 34907 ft | 503 kts | 315° |
| 2026-05-04 04:48 | 12.43320 | 93.82310 | 34946 ft | 500 kts | 314° |
| 2026-05-04 04:49 | 12.55773 | 93.70031 | 34926 ft | 497 kts | 314° |
| 2026-05-04 04:49 | 12.60749 | 93.65120 | 34910 ft | 497 kts | 314° |
| 2026-05-04 04:50 | 12.65718 | 93.60212 | 34919 ft | 496 kts | 314° |
| 2026-05-04 04:50 | 12.70686 | 93.55303 | 34915 ft | 496 kts | 314° |
| 2026-05-04 04:51 | 12.75652 | 93.50393 | 34917 ft | 496 kts | 314° |
| 2026-05-04 04:51 | 12.80623 | 93.45476 | 34934 ft | 496 kts | 314° |
| 2026-05-04 04:52 | 12.85585 | 93.40564 | 34934 ft | 496 kts | 314° |
| 2026-05-04 04:52 | 12.90551 | 93.35646 | 34932 ft | 496 kts | 314° |
| 2026-05-04 04:53 | 12.95512 | 93.30730 | 34931 ft | 496 kts | 314° |
| 2026-05-04 04:53 | 13.00473 | 93.25811 | 34936 ft | 496 kts | 314° |
| 2026-05-04 04:54 | 13.05430 | 93.20892 | 34939 ft | 496 kts | 314° |
| 2026-05-04 04:54 | 13.10387 | 93.15972 | 34930 ft | 496 kts | 314° |
| 2026-05-04 04:55 | 13.15332 | 93.11060 | 34942 ft | 495 kts | 314° |
| 2026-05-04 04:55 | 13.20269 | 93.06154 | 34935 ft | 494 kts | 314° |
| 2026-05-04 04:56 | 13.25196 | 93.01253 | 34931 ft | 492 kts | 314° |
| 2026-05-04 04:56 | 13.30113 | 92.96360 | 34931 ft | 491 kts | 314° |
| 2026-05-04 04:57 | 13.35018 | 92.91477 | 34924 ft | 491 kts | 314° |
| 2026-05-04 04:57 | 13.39917 | 92.86596 | 34910 ft | 491 kts | 314° |
| 2026-05-04 04:58 | 13.44814 | 92.81715 | 34920 ft | 490 kts | 314° |
| 2026-05-04 04:58 | 13.49708 | 92.76834 | 34932 ft | 490 kts | 314° |
| 2026-05-04 04:59 | 13.54602 | 92.71949 | 34917 ft | 490 kts | 314° |
| 2026-05-04 04:59 | 13.59490 | 92.67067 | 34922 ft | 490 kts | 314° |
| 2026-05-04 05:00 | 13.64341 | 92.62219 | 34912 ft | 490 kts | 314° |
| 2026-05-04 05:01 | 13.71677 | 92.54883 | 34929 ft | 491 kts | 314° |
| 2026-05-04 05:01 | 13.76575 | 92.49981 | 34933 ft | 491 kts | 314° |
| 2026-05-04 05:02 | 13.81473 | 92.45077 | 34936 ft | 491 kts | 314° |
| 2026-05-04 05:02 | 13.86344 | 92.40197 | 34930 ft | 492 kts | 314° |
| 2026-05-04 05:03 | 13.91245 | 92.35283 | 34930 ft | 492 kts | 313° |
| 2026-05-04 05:04 | 14.00877 | 92.25298 | 34923 ft | 491 kts | 312° |
| 2026-05-04 05:04 | 14.05642 | 92.20258 | 34916 ft | 491 kts | 312° |
| 2026-05-04 05:06 | 14.23977 | 92.00939 | 34922 ft | 492 kts | 312° |
| 2026-05-04 05:07 | 14.28801 | 91.95920 | 34915 ft | 493 kts | 313° |
| 2026-05-04 05:07 | 14.33675 | 91.90958 | 34914 ft | 493 kts | 313° |
| 2026-05-04 05:09 | 14.55569 | 91.68512 | 34919 ft | 494 kts | 313° |
| 2026-05-04 05:10 | 14.60424 | 91.63521 | 34924 ft | 494 kts | 313° |
| 2026-05-04 05:10 | 14.65288 | 91.58518 | 34924 ft | 494 kts | 313° |
| 2026-05-04 05:11 | 14.70155 | 91.53510 | 34922 ft | 494 kts | 313° |
| 2026-05-04 05:11 | 14.75026 | 91.48493 | 34918 ft | 494 kts | 313° |
| 2026-05-04 05:12 | 14.79897 | 91.43473 | 34921 ft | 495 kts | 313° |
| 2026-05-04 05:12 | 14.84769 | 91.38449 | 34923 ft | 495 kts | 313° |
| 2026-05-04 05:13 | 14.89637 | 91.33425 | 34920 ft | 495 kts | 313° |
| 2026-05-04 05:13 | 14.94509 | 91.28393 | 34924 ft | 495 kts | 313° |
| 2026-05-04 05:14 | 14.99383 | 91.23357 | 34918 ft | 495 kts | 313° |
| 2026-05-04 05:14 | 15.04252 | 91.18322 | 34919 ft | 495 kts | 313° |
| 2026-05-04 05:15 | 15.09112 | 91.13294 | 34920 ft | 496 kts | 313° |
| 2026-05-04 05:15 | 15.13988 | 91.08245 | 34925 ft | 496 kts | 313° |
| 2026-05-04 05:16 | 15.18859 | 91.03197 | 34923 ft | 496 kts | 313° |
| 2026-05-04 05:16 | 15.23735 | 90.98141 | 34920 ft | 496 kts | 313° |
| 2026-05-04 05:17 | 15.28596 | 90.93097 | 34923 ft | 496 kts | 313° |
| 2026-05-04 05:17 | 15.33464 | 90.88043 | 34918 ft | 496 kts | 313° |
| 2026-05-04 05:18 | 15.38335 | 90.82981 | 34920 ft | 496 kts | 313° |
| 2026-05-04 05:18 | 15.43203 | 90.77918 | 34920 ft | 496 kts | 313° |
| 2026-05-04 05:19 | 15.48037 | 90.72889 | 34921 ft | 496 kts | 313° |
| 2026-05-04 05:19 | 15.52905 | 90.67820 | 34926 ft | 496 kts | 313° |
| 2026-05-04 05:20 | 15.57311 | 90.63229 | 34917 ft | 496 kts | 313° |
| 2026-05-04 05:20 | 15.62141 | 90.58192 | 34920 ft | 496 kts | 313° |
| 2026-05-04 05:21 | 15.67005 | 90.53117 | 34921 ft | 496 kts | 313° |
| 2026-05-04 05:21 | 15.71869 | 90.48038 | 34923 ft | 496 kts | 313° |
| 2026-05-04 05:22 | 15.76730 | 90.42959 | 34920 ft | 496 kts | 313° |
| 2026-05-04 05:22 | 15.81578 | 90.37889 | 34918 ft | 495 kts | 313° |
| 2026-05-04 05:23 | 15.86419 | 90.32823 | 34923 ft | 495 kts | 313° |
| 2026-05-04 05:23 | 15.91266 | 90.27748 | 34918 ft | 495 kts | 313° |
| 2026-05-04 05:24 | 15.93681 | 90.25217 | 34757 ft | 497 kts | 313° |
| 2026-05-04 05:24 | 15.96107 | 90.22674 | 34372 ft | 495 kts | 313° |
| 2026-05-04 05:24 | 15.98523 | 90.20142 | 34007 ft | 496 kts | 313° |
| 2026-05-04 05:24 | 16.00950 | 90.17597 | 33808 ft | 495 kts | 313° |
| 2026-05-04 05:25 | 16.05844 | 90.12541 | 33973 ft | 498 kts | 314° |
| 2026-05-04 05:25 | 16.08323 | 90.10026 | 34088 ft | 497 kts | 314° |
| 2026-05-04 05:25 | 16.10799 | 90.07511 | 34201 ft | 497 kts | 314° |
| 2026-05-04 05:26 | 16.15695 | 90.02522 | 34427 ft | 496 kts | 314° |
| 2026-05-04 05:26 | 16.18157 | 90.00006 | 34529 ft | 496 kts | 314° |
| 2026-05-04 05:26 | 16.20610 | 89.97499 | 34643 ft | 493 kts | 314° |
| 2026-05-04 05:27 | 16.23058 | 89.94995 | 34761 ft | 493 kts | 314° |
| 2026-05-04 05:28 | 16.40103 | 89.77535 | 34914 ft | 492 kts | 313° |
| 2026-05-04 05:29 | 16.44960 | 89.72552 | 34915 ft | 492 kts | 313° |
| 2026-05-04 05:29 | 16.49832 | 89.67549 | 34911 ft | 492 kts | 313° |
| 2026-05-04 05:31 | 16.69260 | 89.47564 | 34910 ft | 492 kts | 313° |
| 2026-05-04 05:32 | 16.74103 | 89.42573 | 34921 ft | 491 kts | 313° |
| 2026-05-04 05:33 | 16.81376 | 89.35070 | 34911 ft | 490 kts | 313° |
| 2026-05-04 05:33 | 16.86188 | 89.30100 | 34904 ft | 490 kts | 313° |
| 2026-05-04 05:34 | 16.90987 | 89.25141 | 34906 ft | 490 kts | 313° |
| 2026-05-04 05:34 | 16.95775 | 89.20190 | 34910 ft | 489 kts | 313° |
| 2026-05-04 05:35 | 17.00597 | 89.15199 | 34906 ft | 489 kts | 313° |
| 2026-05-04 05:35 | 17.05420 | 89.10203 | 34911 ft | 488 kts | 313° |
| 2026-05-04 05:36 | 17.10219 | 89.05230 | 34906 ft | 488 kts | 313° |
| 2026-05-04 05:36 | 17.15033 | 89.00236 | 34903 ft | 487 kts | 313° |
| 2026-05-04 05:37 | 17.19837 | 88.95249 | 34899 ft | 487 kts | 313° |
| 2026-05-04 05:37 | 17.24647 | 88.90322 | 34897 ft | 487 kts | 313° |
| 2026-05-04 05:38 | 17.31930 | 88.82907 | 34894 ft | 487 kts | 313° |
| 2026-05-04 05:38 | 17.36780 | 88.77951 | 34896 ft | 488 kts | 313° |
| 2026-05-04 05:39 | 17.44060 | 88.70504 | 34904 ft | 488 kts | 313° |
| 2026-05-04 05:40 | 17.51337 | 88.63049 | 34903 ft | 487 kts | 313° |
| 2026-05-04 05:40 | 17.56178 | 88.58086 | 34899 ft | 487 kts | 313° |
| 2026-05-04 05:41 | 17.61022 | 88.53115 | 34899 ft | 487 kts | 313° |
| 2026-05-04 05:41 | 17.65851 | 88.48156 | 34899 ft | 487 kts | 313° |
| 2026-05-04 05:42 | 17.70667 | 88.43205 | 34897 ft | 487 kts | 313° |
| 2026-05-04 05:42 | 17.75462 | 88.38274 | 34903 ft | 487 kts | 313° |
| 2026-05-04 05:43 | 17.80291 | 88.33303 | 34902 ft | 486 kts | 313° |
| 2026-05-04 05:45 | 17.99546 | 88.13442 | 34890 ft | 485 kts | 313° |
| 2026-05-04 05:47 | 18.18780 | 87.93539 | 34892 ft | 486 kts | 313° |
| 2026-05-04 05:47 | 18.23589 | 87.88552 | 34893 ft | 486 kts | 313° |
| 2026-05-04 05:48 | 18.28388 | 87.83573 | 34892 ft | 486 kts | 313° |
| 2026-05-04 05:48 | 18.33230 | 87.78614 | 34891 ft | 486 kts | 314° |
| 2026-05-04 05:49 | 18.38087 | 87.73688 | 34892 ft | 486 kts | 314° |
| 2026-05-04 05:49 | 18.42950 | 87.68738 | 34894 ft | 486 kts | 314° |
| 2026-05-04 05:51 | 18.62280 | 87.48997 | 34884 ft | 485 kts | 314° |
| 2026-05-04 05:52 | 18.67111 | 87.44052 | 34880 ft | 485 kts | 314° |
| 2026-05-04 05:52 | 18.71951 | 87.39095 | 34879 ft | 485 kts | 314° |
| 2026-05-04 05:54 | 18.90465 | 87.20091 | 34879 ft | 485 kts | 313° |
| 2026-05-04 05:55 | 18.95273 | 87.15146 | 34880 ft | 485 kts | 313° |
| 2026-05-04 05:55 | 19.00112 | 87.10165 | 34882 ft | 485 kts | 313° |
| 2026-05-04 05:56 | 19.04924 | 87.05207 | 34875 ft | 486 kts | 313° |
| 2026-05-04 05:56 | 19.09758 | 87.00223 | 34880 ft | 486 kts | 313° |
| 2026-05-04 05:57 | 19.14592 | 86.95234 | 34878 ft | 485 kts | 313° |
| 2026-05-04 05:57 | 19.19426 | 86.90241 | 34868 ft | 486 kts | 313° |
| 2026-05-04 05:58 | 19.24258 | 86.85245 | 34869 ft | 486 kts | 313° |
| 2026-05-04 05:58 | 19.29083 | 86.80252 | 34869 ft | 486 kts | 313° |
| 2026-05-04 05:59 | 19.33918 | 86.75245 | 34867 ft | 486 kts | 313° |
| 2026-05-04 05:59 | 19.38751 | 86.70235 | 34870 ft | 486 kts | 313° |
| 2026-05-04 06:00 | 19.43565 | 86.65241 | 34879 ft | 486 kts | 313° |
| 2026-05-04 06:00 | 19.48401 | 86.60220 | 34874 ft | 487 kts | 313° |
| 2026-05-04 06:01 | 19.53221 | 86.55211 | 34861 ft | 487 kts | 313° |
| 2026-05-04 06:03 | 19.72476 | 86.35063 | 34857 ft | 487 kts | 312° |
| 2026-05-04 06:05 | 19.94029 | 86.12387 | 34845 ft | 487 kts | 313° |
| 2026-05-04 06:06 | 19.98931 | 86.07407 | 34845 ft | 487 kts | 313° |
| 2026-05-04 06:06 | 20.03826 | 86.02417 | 34846 ft | 487 kts | 313° |
| 2026-05-04 06:07 | 20.08701 | 85.97432 | 34849 ft | 488 kts | 313° |
| 2026-05-04 06:07 | 20.13589 | 85.92426 | 34854 ft | 488 kts | 313° |
| 2026-05-04 06:08 | 20.18472 | 85.87419 | 34857 ft | 488 kts | 313° |
| 2026-05-04 06:08 | 20.23361 | 85.82400 | 34857 ft | 488 kts | 312° |
| 2026-05-04 06:09 | 20.27833 | 85.77027 | 34855 ft | 485 kts | 307° |
| 2026-05-04 06:11 | 20.45286 | 85.55117 | 34845 ft | 485 kts | 307° |
| 2026-05-04 06:13 | 20.62649 | 85.33223 | 34840 ft | 485 kts | 307° |
| 2026-05-04 06:14 | 20.77850 | 85.13985 | 34846 ft | 486 kts | 306° |
| 2026-05-04 06:15 | 20.82210 | 85.08456 | 34853 ft | 486 kts | 306° |
| 2026-05-04 06:15 | 20.86567 | 85.02925 | 34847 ft | 487 kts | 306° |
| 2026-05-04 06:16 | 20.90925 | 84.97386 | 34846 ft | 487 kts | 306° |
| 2026-05-04 06:16 | 20.95279 | 84.91848 | 34849 ft | 487 kts | 306° |
| 2026-05-04 06:17 | 20.99642 | 84.86293 | 34850 ft | 487 kts | 306° |
| 2026-05-04 06:17 | 21.04000 | 84.80738 | 34852 ft | 488 kts | 306° |
| 2026-05-04 06:18 | 21.08359 | 84.75177 | 34865 ft | 487 kts | 306° |
| 2026-05-04 06:20 | 21.25720 | 84.52971 | 34844 ft | 486 kts | 306° |
| 2026-05-04 06:21 | 21.36555 | 84.39067 | 34846 ft | 486 kts | 306° |
| 2026-05-04 06:22 | 21.40888 | 84.33498 | 34844 ft | 486 kts | 306° |
| 2026-05-04 06:25 | 21.71139 | 83.94449 | 34852 ft | 486 kts | 305° |
| 2026-05-04 06:26 | 21.75413 | 83.88910 | 34844 ft | 486 kts | 305° |
| 2026-05-04 06:26 | 21.79700 | 83.83347 | 34851 ft | 486 kts | 305° |
| 2026-05-04 06:27 | 21.90476 | 83.69341 | 34839 ft | 486 kts | 305° |
| 2026-05-04 06:28 | 21.94786 | 83.63728 | 34854 ft | 486 kts | 305° |
| 2026-05-04 06:28 | 21.99073 | 83.58139 | 34850 ft | 486 kts | 305° |
| 2026-05-04 06:29 | 22.03368 | 83.52536 | 34848 ft | 486 kts | 305° |
| 2026-05-04 06:29 | 22.07664 | 83.46928 | 34853 ft | 486 kts | 305° |
| 2026-05-04 06:30 | 22.11877 | 83.41256 | 34856 ft | 485 kts | 303° |
| 2026-05-04 06:30 | 22.16027 | 83.35562 | 34856 ft | 486 kts | 303° |
| 2026-05-04 06:31 | 22.20220 | 83.29875 | 34861 ft | 487 kts | 304° |
| 2026-05-04 06:31 | 22.24552 | 83.24283 | 34860 ft | 487 kts | 305° |
| 2026-05-04 06:33 | 22.41871 | 83.01788 | 34871 ft | 486 kts | 304° |
| 2026-05-04 06:34 | 22.46184 | 82.96159 | 34859 ft | 486 kts | 304° |
| 2026-05-04 06:34 | 22.50489 | 82.90535 | 34858 ft | 486 kts | 304° |
| 2026-05-04 06:36 | 22.67623 | 82.68088 | 34840 ft | 486 kts | 304° |
| 2026-05-04 06:37 | 22.71910 | 82.62457 | 34842 ft | 486 kts | 304° |
| 2026-05-04 06:37 | 22.76201 | 82.56814 | 34842 ft | 486 kts | 304° |
| 2026-05-04 06:38 | 22.80486 | 82.51173 | 34837 ft | 485 kts | 304° |
| 2026-05-04 06:40 | 22.96894 | 82.29517 | 34834 ft | 485 kts | 304° |
| 2026-05-04 06:40 | 23.01167 | 82.23861 | 34847 ft | 484 kts | 304° |
| 2026-05-04 06:41 | 23.05436 | 82.18206 | 34848 ft | 484 kts | 304° |
| 2026-05-04 06:41 | 23.09740 | 82.12593 | 34849 ft | 485 kts | 305° |
| 2026-05-04 06:42 | 23.14147 | 82.07041 | 34847 ft | 485 kts | 306° |
| 2026-05-04 06:44 | 23.31663 | 81.84765 | 34836 ft | 486 kts | 305° |
| 2026-05-04 06:44 | 23.36049 | 81.79164 | 34822 ft | 486 kts | 305° |
| 2026-05-04 06:45 | 23.40417 | 81.73579 | 34821 ft | 486 kts | 305° |
| 2026-05-04 06:45 | 23.44767 | 81.68012 | 34820 ft | 486 kts | 305° |
| 2026-05-04 06:46 | 23.49127 | 81.62426 | 34816 ft | 486 kts | 305° |
| 2026-05-04 06:46 | 23.53499 | 81.56819 | 34823 ft | 485 kts | 304° |
| 2026-05-04 06:48 | 23.70916 | 81.34413 | 34795 ft | 483 kts | 304° |
| 2026-05-04 06:50 | 23.88234 | 81.12034 | 34810 ft | 483 kts | 304° |
| 2026-05-04 06:51 | 23.92559 | 81.06429 | 34804 ft | 482 kts | 304° |
| 2026-05-04 06:51 | 23.96877 | 81.00827 | 34801 ft | 482 kts | 304° |
| 2026-05-04 06:52 | 24.01182 | 80.95235 | 34804 ft | 482 kts | 304° |
| 2026-05-04 06:52 | 24.05497 | 80.89624 | 34810 ft | 482 kts | 304° |
| 2026-05-04 06:53 | 24.09777 | 80.84052 | 34807 ft | 481 kts | 304° |
| 2026-05-04 06:53 | 24.14085 | 80.78439 | 34820 ft | 482 kts | 304° |
| 2026-05-04 06:54 | 24.18392 | 80.72819 | 34816 ft | 482 kts | 304° |
| 2026-05-04 06:54 | 24.22693 | 80.67200 | 34820 ft | 481 kts | 304° |
| 2026-05-04 06:55 | 24.26994 | 80.61574 | 34820 ft | 481 kts | 304° |
| 2026-05-04 06:55 | 24.31287 | 80.55954 | 34824 ft | 481 kts | 304° |
| 2026-05-04 06:57 | 24.48437 | 80.33433 | 34830 ft | 483 kts | 303° |
| 2026-05-04 06:58 | 24.52736 | 80.27771 | 34828 ft | 484 kts | 303° |
| 2026-05-04 06:58 | 24.57028 | 80.22112 | 34830 ft | 484 kts | 303° |
| 2026-05-04 06:59 | 24.61335 | 80.16427 | 34839 ft | 484 kts | 303° |
| 2026-05-04 06:59 | 24.65639 | 80.10737 | 34829 ft | 484 kts | 303° |
| 2026-05-04 07:01 | 24.82164 | 79.87664 | 34832 ft | 472 kts | 293° |
| 2026-05-04 07:02 | 24.85343 | 79.81330 | 34832 ft | 472 kts | 293° |
| 2026-05-04 07:02 | 24.88549 | 79.75025 | 34837 ft | 473 kts | 294° |
| 2026-05-04 07:03 | 24.91747 | 79.68713 | 34841 ft | 473 kts | 293° |
| 2026-05-04 07:03 | 24.94944 | 79.62384 | 34841 ft | 472 kts | 293° |
| 2026-05-04 07:04 | 24.98119 | 79.56088 | 34835 ft | 472 kts | 293° |
| 2026-05-04 07:04 | 25.01304 | 79.49765 | 34834 ft | 471 kts | 293° |
| 2026-05-04 07:05 | 25.04461 | 79.43488 | 34834 ft | 471 kts | 293° |
| 2026-05-04 07:05 | 25.07633 | 79.37172 | 34843 ft | 470 kts | 293° |
| 2026-05-04 07:06 | 25.12376 | 79.27714 | 34840 ft | 470 kts | 293° |
| 2026-05-04 07:07 | 25.15535 | 79.21402 | 34836 ft | 469 kts | 293° |
| 2026-05-04 07:09 | 25.28137 | 78.96141 | 34845 ft | 470 kts | 293° |
| 2026-05-04 07:09 | 25.31284 | 78.89810 | 34845 ft | 470 kts | 293° |
| 2026-05-04 07:10 | 25.34425 | 78.83485 | 34848 ft | 470 kts | 293° |
| 2026-05-04 07:12 | 25.46959 | 78.58151 | 34860 ft | 469 kts | 293° |
| 2026-05-04 07:12 | 25.50071 | 78.51838 | 34871 ft | 468 kts | 293° |
| 2026-05-04 07:13 | 25.53190 | 78.45505 | 34846 ft | 468 kts | 293° |
| 2026-05-04 07:13 | 25.56301 | 78.39176 | 34850 ft | 468 kts | 293° |
| 2026-05-04 07:14 | 25.64091 | 78.23373 | 34851 ft | 468 kts | 293° |
| 2026-05-04 07:15 | 25.67229 | 78.17079 | 34857 ft | 468 kts | 293° |
| 2026-05-04 07:15 | 25.70373 | 78.10754 | 34858 ft | 468 kts | 293° |
| 2026-05-04 07:16 | 25.73502 | 78.04444 | 34860 ft | 468 kts | 293° |
| 2026-05-04 07:16 | 25.76634 | 77.98118 | 34880 ft | 468 kts | 293° |
| 2026-05-04 07:17 | 25.79767 | 77.91779 | 34881 ft | 468 kts | 294° |
| 2026-05-04 07:17 | 25.82875 | 77.85485 | 34881 ft | 468 kts | 294° |
| 2026-05-04 07:18 | 25.86019 | 77.79110 | 34878 ft | 467 kts | 293° |
| 2026-05-04 07:18 | 25.89127 | 77.72796 | 34869 ft | 467 kts | 293° |
| 2026-05-04 07:19 | 25.92209 | 77.66528 | 34860 ft | 466 kts | 293° |
| 2026-05-04 07:19 | 25.95314 | 77.60203 | 34858 ft | 466 kts | 293° |
| 2026-05-04 07:20 | 25.98412 | 77.53883 | 34866 ft | 465 kts | 294° |
| 2026-05-04 07:20 | 26.01504 | 77.47569 | 34859 ft | 465 kts | 294° |
| 2026-05-04 07:22 | 26.13844 | 77.22274 | 34859 ft | 465 kts | 294° |
| 2026-05-04 07:23 | 26.16414 | 77.16973 | 34857 ft | 464 kts | 294° |
| 2026-05-04 07:23 | 26.19466 | 77.10651 | 34857 ft | 464 kts | 294° |
| 2026-05-04 07:24 | 26.22495 | 77.04371 | 34846 ft | 463 kts | 294° |
| 2026-05-04 07:24 | 26.25540 | 76.98051 | 34847 ft | 463 kts | 294° |
| 2026-05-04 07:26 | 26.37676 | 76.72772 | 34863 ft | 462 kts | 294° |
| 2026-05-04 07:27 | 26.40700 | 76.66450 | 34856 ft | 462 kts | 294° |
| 2026-05-04 07:27 | 26.43719 | 76.60128 | 34852 ft | 461 kts | 294° |
| 2026-05-04 07:28 | 26.46733 | 76.53810 | 34849 ft | 461 kts | 294° |
| 2026-05-04 07:28 | 26.49907 | 76.47585 | 34860 ft | 461 kts | 296° |
| 2026-05-04 07:29 | 26.53139 | 76.41397 | 34856 ft | 461 kts | 296° |
| 2026-05-04 07:29 | 26.56342 | 76.35191 | 34859 ft | 461 kts | 296° |
| 2026-05-04 07:30 | 26.59529 | 76.28983 | 34856 ft | 461 kts | 296° |
| 2026-05-04 07:30 | 26.62713 | 76.22768 | 34856 ft | 460 kts | 296° |
| 2026-05-04 07:31 | 26.65890 | 76.16562 | 34852 ft | 460 kts | 296° |
| 2026-05-04 07:33 | 26.78508 | 75.91822 | 34893 ft | 457 kts | 296° |
| 2026-05-04 07:33 | 26.81648 | 75.85643 | 34888 ft | 456 kts | 296° |
| 2026-05-04 07:34 | 26.84690 | 75.79443 | 34880 ft | 455 kts | 294° |
| 2026-05-04 07:34 | 26.87560 | 75.73140 | 34885 ft | 453 kts | 294° |
| 2026-05-04 07:35 | 26.90444 | 75.66857 | 34874 ft | 453 kts | 294° |
| 2026-05-04 07:35 | 26.93339 | 75.60591 | 34857 ft | 453 kts | 294° |
| 2026-05-04 07:36 | 26.96231 | 75.54331 | 34840 ft | 453 kts | 294° |
| 2026-05-04 07:38 | 27.07789 | 75.29214 | 34816 ft | 453 kts | 294° |
| 2026-05-04 07:38 | 27.10668 | 75.22929 | 34816 ft | 453 kts | 294° |
| 2026-05-04 07:39 | 27.13540 | 75.16654 | 34813 ft | 453 kts | 294° |
| 2026-05-04 07:39 | 27.16415 | 75.10362 | 34808 ft | 452 kts | 294° |
| 2026-05-04 07:40 | 27.19277 | 75.04085 | 34799 ft | 453 kts | 294° |
| 2026-05-04 07:40 | 27.22144 | 74.97790 | 34802 ft | 454 kts | 294° |
| 2026-05-04 07:41 | 27.25007 | 74.91495 | 34804 ft | 455 kts | 294° |
| 2026-05-04 07:41 | 27.27868 | 74.85196 | 34818 ft | 455 kts | 294° |
| 2026-05-04 07:42 | 27.30762 | 74.78814 | 34812 ft | 455 kts | 294° |
| 2026-05-04 07:42 | 27.33610 | 74.72523 | 34811 ft | 454 kts | 294° |
| 2026-05-04 07:43 | 27.36472 | 74.66191 | 34801 ft | 454 kts | 294° |
| 2026-05-04 07:43 | 27.39328 | 74.59864 | 34807 ft | 453 kts | 294° |
| 2026-05-04 07:44 | 27.42165 | 74.53569 | 34806 ft | 453 kts | 294° |
| 2026-05-04 07:44 | 27.45010 | 74.47247 | 34773 ft | 452 kts | 294° |
| 2026-05-04 07:45 | 27.47852 | 74.40923 | 34779 ft | 452 kts | 294° |
| 2026-05-04 07:45 | 27.50688 | 74.34600 | 34765 ft | 453 kts | 294° |
| 2026-05-04 07:46 | 27.53519 | 74.28281 | 34753 ft | 453 kts | 295° |
| 2026-05-04 07:46 | 27.56359 | 74.21930 | 34764 ft | 454 kts | 294° |
| 2026-05-04 07:47 | 27.59197 | 74.15578 | 34763 ft | 454 kts | 294° |
| 2026-05-04 07:49 | 27.70529 | 73.90103 | 34746 ft | 453 kts | 295° |
| 2026-05-04 07:49 | 27.73350 | 73.83740 | 34739 ft | 453 kts | 295° |
| 2026-05-04 07:50 | 27.76294 | 73.77467 | 34717 ft | 452 kts | 297° |
| 2026-05-04 07:50 | 27.79314 | 73.71245 | 34712 ft | 451 kts | 297° |
| 2026-05-04 07:51 | 27.82300 | 73.65023 | 34676 ft | 450 kts | 296° |
| 2026-05-04 07:51 | 27.85266 | 73.58801 | 34687 ft | 450 kts | 297° |
| 2026-05-04 07:52 | 27.88230 | 73.52574 | 34682 ft | 450 kts | 297° |
| 2026-05-04 07:52 | 27.91184 | 73.46359 | 34669 ft | 450 kts | 297° |
| 2026-05-04 07:54 | 28.02976 | 73.21456 | 34663 ft | 449 kts | 297° |
| 2026-05-04 07:55 | 28.05912 | 73.15233 | 34656 ft | 448 kts | 297° |
| 2026-05-04 07:55 | 28.08838 | 73.09022 | 34640 ft | 447 kts | 297° |
| 2026-05-04 07:56 | 28.11752 | 73.02826 | 34637 ft | 446 kts | 297° |
| 2026-05-04 07:56 | 28.14667 | 72.96620 | 34634 ft | 446 kts | 297° |
| 2026-05-04 07:57 | 28.17576 | 72.90414 | 34644 ft | 446 kts | 297° |
| 2026-05-04 07:57 | 28.20481 | 72.84212 | 34644 ft | 445 kts | 297° |
| 2026-05-04 07:58 | 28.23380 | 72.78011 | 34641 ft | 445 kts | 297° |
| 2026-05-04 07:58 | 28.26276 | 72.71807 | 34643 ft | 445 kts | 297° |
| 2026-05-04 07:59 | 28.29167 | 72.65604 | 34641 ft | 445 kts | 297° |
| 2026-05-04 07:59 | 28.32053 | 72.59402 | 34628 ft | 444 kts | 297° |
| 2026-05-04 08:00 | 28.34926 | 72.53220 | 34656 ft | 444 kts | 297° |
| 2026-05-04 08:02 | 28.46549 | 72.28426 | 34652 ft | 446 kts | 302° |
| 2026-05-04 08:02 | 28.50324 | 72.22876 | 34676 ft | 447 kts | 311° |
| 2026-05-04 08:03 | 28.54844 | 72.18049 | 34670 ft | 448 kts | 316° |
| 2026-05-04 08:03 | 28.59494 | 72.13379 | 34666 ft | 448 kts | 316° |
| 2026-05-04 08:04 | 28.64162 | 72.08673 | 34669 ft | 448 kts | 316° |
| 2026-05-04 08:04 | 28.68816 | 72.03984 | 34668 ft | 448 kts | 316° |
| 2026-05-04 08:05 | 28.73483 | 71.99279 | 34673 ft | 448 kts | 316° |
| 2026-05-04 08:05 | 28.78149 | 71.94569 | 34673 ft | 448 kts | 316° |
| 2026-05-04 08:06 | 28.82805 | 71.89864 | 34682 ft | 447 kts | 316° |
| 2026-05-04 08:06 | 28.87430 | 71.85184 | 34702 ft | 446 kts | 316° |
| 2026-05-04 08:08 | 29.05187 | 71.67161 | 34683 ft | 445 kts | 316° |
| 2026-05-04 08:11 | 29.25989 | 71.45938 | 34702 ft | 445 kts | 316° |
| 2026-05-04 08:11 | 29.32911 | 71.38873 | 34696 ft | 444 kts | 316° |
| 2026-05-04 08:12 | 29.37547 | 71.34180 | 34692 ft | 445 kts | 316° |
| 2026-05-04 08:12 | 29.42154 | 71.29506 | 34695 ft | 445 kts | 316° |
| 2026-05-04 08:13 | 29.46823 | 71.24759 | 34694 ft | 446 kts | 316° |
| 2026-05-04 08:13 | 29.51433 | 71.20066 | 34692 ft | 446 kts | 316° |
| 2026-05-04 08:14 | 29.56101 | 71.15307 | 34693 ft | 446 kts | 316° |
| 2026-05-04 08:16 | 29.74887 | 70.96637 | 34706 ft | 448 kts | 319° |
| 2026-05-04 08:16 | 29.79748 | 70.92144 | 34710 ft | 448 kts | 319° |
| 2026-05-04 08:17 | 29.84591 | 70.87614 | 34702 ft | 448 kts | 319° |
| 2026-05-04 08:17 | 29.89416 | 70.83084 | 34728 ft | 447 kts | 319° |
| 2026-05-04 08:19 | 30.08602 | 70.65009 | 34712 ft | 446 kts | 319° |
| 2026-05-04 08:20 | 30.13402 | 70.60473 | 34724 ft | 446 kts | 319° |
| 2026-05-04 08:20 | 30.18207 | 70.55926 | 34733 ft | 446 kts | 319° |
| 2026-05-04 08:21 | 30.23005 | 70.51383 | 34753 ft | 445 kts | 319° |
| 2026-05-04 08:21 | 30.27830 | 70.46922 | 34777 ft | 445 kts | 319° |
| 2026-05-04 08:22 | 30.32678 | 70.42466 | 34764 ft | 445 kts | 319° |
| 2026-05-04 08:24 | 30.52000 | 70.24567 | 34789 ft | 444 kts | 319° |
| 2026-05-04 08:24 | 30.56836 | 70.20071 | 34784 ft | 445 kts | 319° |
| 2026-05-04 08:25 | 30.61646 | 70.15593 | 34817 ft | 444 kts | 319° |
| 2026-05-04 08:25 | 30.66436 | 70.11131 | 34817 ft | 444 kts | 319° |
| 2026-05-04 08:27 | 30.85593 | 69.93212 | 34819 ft | 445 kts | 319° |
| 2026-05-04 08:28 | 30.90377 | 69.88723 | 34832 ft | 445 kts | 319° |
| 2026-05-04 08:28 | 30.95190 | 69.84201 | 34840 ft | 444 kts | 319° |
| 2026-05-04 08:29 | 31.00000 | 69.79675 | 34860 ft | 444 kts | 319° |
| 2026-05-04 08:31 | 31.19175 | 69.61575 | 34813 ft | 444 kts | 319° |
| 2026-05-04 08:33 | 31.37807 | 69.42732 | 34824 ft | 441 kts | 309° |
| 2026-05-04 08:35 | 31.52935 | 69.20404 | 34813 ft | 439 kts | 308° |
| 2026-05-04 08:35 | 31.56713 | 69.14804 | 34833 ft | 437 kts | 308° |
| 2026-05-04 08:37 | 31.69961 | 68.95309 | 34832 ft | 438 kts | 309° |
| 2026-05-04 08:38 | 31.73889 | 68.89888 | 34834 ft | 439 kts | 309° |
| 2026-05-04 08:38 | 31.77822 | 68.84411 | 34872 ft | 438 kts | 309° |
| 2026-05-04 08:40 | 31.93467 | 68.62429 | 34873 ft | 440 kts | 309° |
| 2026-05-04 08:41 | 31.97389 | 68.56897 | 34885 ft | 440 kts | 309° |
| 2026-05-04 08:41 | 32.01296 | 68.51377 | 34886 ft | 439 kts | 309° |
| 2026-05-04 08:42 | 32.05192 | 68.45866 | 34897 ft | 439 kts | 309° |
| 2026-05-04 08:42 | 32.09090 | 68.40344 | 34894 ft | 438 kts | 309° |
| 2026-05-04 08:43 | 32.12987 | 68.34814 | 34896 ft | 438 kts | 309° |
| 2026-05-04 08:43 | 32.16877 | 68.29288 | 34898 ft | 437 kts | 309° |
| 2026-05-04 08:44 | 32.20730 | 68.23805 | 34898 ft | 437 kts | 309° |
| 2026-05-04 08:46 | 32.36197 | 68.01716 | 34889 ft | 437 kts | 309° |
| 2026-05-04 08:46 | 32.40069 | 67.96166 | 34891 ft | 438 kts | 309° |
| 2026-05-04 08:47 | 32.43942 | 67.90607 | 34887 ft | 438 kts | 309° |
| 2026-05-04 08:47 | 32.47815 | 67.85039 | 34875 ft | 439 kts | 309° |
| 2026-05-04 08:48 | 32.51710 | 67.79475 | 34872 ft | 439 kts | 310° |
| 2026-05-04 08:48 | 32.55779 | 67.74080 | 34874 ft | 439 kts | 311° |
| 2026-05-04 08:49 | 32.59849 | 67.68697 | 34876 ft | 439 kts | 311° |
| 2026-05-04 08:50 | 32.74043 | 67.49666 | 34888 ft | 440 kts | 310° |
| 2026-05-04 08:51 | 32.78095 | 67.44208 | 34877 ft | 440 kts | 310° |
| 2026-05-04 08:51 | 32.82013 | 67.38646 | 34878 ft | 439 kts | 309° |
| 2026-05-04 08:52 | 32.85236 | 67.33993 | 34891 ft | 439 kts | 309° |
| 2026-05-04 08:52 | 32.89126 | 67.28407 | 34914 ft | 438 kts | 309° |
| 2026-05-04 08:54 | 33.04622 | 67.06164 | 34953 ft | 434 kts | 309° |
| 2026-05-04 08:55 | 33.08475 | 67.00610 | 34968 ft | 435 kts | 309° |
| 2026-05-04 08:55 | 33.12300 | 66.95090 | 34965 ft | 435 kts | 309° |
| 2026-05-04 09:01 | 33.52676 | 66.36263 | 34943 ft | 439 kts | 309° |
| 2026-05-04 09:01 | 33.56514 | 66.30598 | 34928 ft | 439 kts | 309° |
| 2026-05-04 09:02 | 33.60358 | 66.24915 | 34920 ft | 438 kts | 309° |
| 2026-05-04 09:02 | 33.64195 | 66.19236 | 34934 ft | 438 kts | 309° |
| 2026-05-04 09:03 | 33.68032 | 66.13548 | 34947 ft | 438 kts | 309° |
| 2026-05-04 09:03 | 33.71863 | 66.07860 | 34940 ft | 438 kts | 309° |
| 2026-05-04 09:04 | 33.75696 | 66.02159 | 34945 ft | 439 kts | 309° |
| 2026-05-04 09:04 | 33.79532 | 65.96445 | 34953 ft | 439 kts | 308° |
| 2026-05-04 09:05 | 33.83368 | 65.90721 | 34965 ft | 439 kts | 308° |
| 2026-05-04 09:05 | 33.87198 | 65.84998 | 34963 ft | 439 kts | 308° |
| 2026-05-04 09:06 | 33.91012 | 65.79291 | 34968 ft | 440 kts | 308° |
| 2026-05-04 09:08 | 34.06332 | 65.56273 | 34977 ft | 439 kts | 308° |
| 2026-05-04 09:08 | 34.10131 | 65.50548 | 34977 ft | 438 kts | 308° |
| 2026-05-04 09:09 | 34.13942 | 65.44808 | 34983 ft | 438 kts | 308° |
| 2026-05-04 09:09 | 34.17746 | 65.39068 | 35005 ft | 438 kts | 308° |
| 2026-05-04 09:10 | 34.21553 | 65.33312 | 34984 ft | 438 kts | 308° |
| 2026-05-04 09:10 | 34.25353 | 65.27558 | 34976 ft | 437 kts | 308° |
| 2026-05-04 09:11 | 34.29134 | 65.21825 | 34975 ft | 437 kts | 308° |
| 2026-05-04 09:11 | 34.32927 | 65.16063 | 34979 ft | 438 kts | 308° |
| 2026-05-04 09:12 | 34.36719 | 65.10292 | 34980 ft | 439 kts | 308° |
| 2026-05-04 09:14 | 34.51886 | 64.87120 | 34985 ft | 440 kts | 308° |
| 2026-05-04 09:14 | 34.55674 | 64.81292 | 34991 ft | 440 kts | 308° |
| 2026-05-04 09:15 | 34.59464 | 64.75453 | 34993 ft | 440 kts | 308° |
| 2026-05-04 09:15 | 34.63246 | 64.69619 | 34998 ft | 440 kts | 308° |
| 2026-05-04 09:17 | 34.80187 | 64.43365 | 35004 ft | 441 kts | 307° |
| 2026-05-04 09:18 | 34.83954 | 64.37500 | 35001 ft | 442 kts | 307° |
| 2026-05-04 09:18 | 34.87698 | 64.31660 | 35012 ft | 441 kts | 307° |
| 2026-05-04 09:19 | 34.91448 | 64.25803 | 34993 ft | 442 kts | 307° |
| 2026-05-04 09:19 | 34.95208 | 64.19921 | 34987 ft | 442 kts | 307° |
| 2026-05-04 09:20 | 34.98980 | 64.14010 | 34984 ft | 441 kts | 307° |
| 2026-05-04 09:20 | 35.02732 | 64.08117 | 34980 ft | 441 kts | 307° |
| 2026-05-04 09:21 | 35.06460 | 64.02253 | 34977 ft | 440 kts | 307° |
| 2026-05-04 09:21 | 35.10216 | 63.96341 | 34965 ft | 441 kts | 307° |
| 2026-05-04 09:22 | 35.13969 | 63.90419 | 34968 ft | 441 kts | 307° |
| 2026-05-04 09:22 | 35.17692 | 63.84535 | 34977 ft | 442 kts | 307° |
| 2026-05-04 09:23 | 35.21455 | 63.78580 | 35000 ft | 443 kts | 307° |
| 2026-05-04 09:23 | 35.25227 | 63.72598 | 34962 ft | 445 kts | 307° |
| 2026-05-04 09:25 | 35.40320 | 63.48688 | 34961 ft | 444 kts | 307° |
| 2026-05-04 09:26 | 35.44073 | 63.42733 | 34947 ft | 444 kts | 307° |
| 2026-05-04 09:26 | 35.47874 | 63.36693 | 34961 ft | 444 kts | 307° |
| 2026-05-04 09:27 | 35.51644 | 63.30688 | 34963 ft | 444 kts | 307° |
| 2026-05-04 09:27 | 35.55405 | 63.24691 | 34971 ft | 445 kts | 307° |
| 2026-05-04 09:28 | 35.59309 | 63.18881 | 34961 ft | 446 kts | 313° |
| 2026-05-04 09:28 | 35.63784 | 63.13586 | 34959 ft | 447 kts | 314° |
| 2026-05-04 09:29 | 35.68252 | 63.08279 | 34955 ft | 447 kts | 314° |
| 2026-05-04 09:29 | 35.72724 | 63.02964 | 34961 ft | 447 kts | 314° |
| 2026-05-04 09:30 | 35.77199 | 62.97643 | 34964 ft | 447 kts | 314° |
| 2026-05-04 09:30 | 35.81667 | 62.92323 | 34960 ft | 447 kts | 314° |
| 2026-05-04 09:31 | 35.86134 | 62.86995 | 34962 ft | 447 kts | 314° |
| 2026-05-04 09:31 | 35.90604 | 62.81655 | 34957 ft | 447 kts | 314° |
| 2026-05-04 09:32 | 35.95057 | 62.76327 | 34967 ft | 447 kts | 314° |
| 2026-05-04 09:34 | 36.12896 | 62.54891 | 34970 ft | 448 kts | 314° |
| 2026-05-04 09:34 | 36.17327 | 62.49544 | 34971 ft | 448 kts | 314° |
| 2026-05-04 09:35 | 36.21775 | 62.44169 | 34977 ft | 448 kts | 314° |
| 2026-05-04 09:35 | 36.26234 | 62.38769 | 34977 ft | 449 kts | 314° |
| 2026-05-04 09:37 | 36.44040 | 62.17120 | 34983 ft | 449 kts | 313° |
| 2026-05-04 09:38 | 36.48486 | 62.11691 | 34979 ft | 449 kts | 313° |
| 2026-05-04 09:38 | 36.52940 | 62.06244 | 34978 ft | 449 kts | 313° |
| 2026-05-04 09:39 | 36.57380 | 62.00804 | 34987 ft | 449 kts | 313° |
| 2026-05-04 09:39 | 36.61077 | 61.96268 | 34979 ft | 449 kts | 313° |
| 2026-05-04 09:40 | 36.65524 | 61.90802 | 34975 ft | 449 kts | 313° |
| 2026-05-04 09:40 | 36.69965 | 61.85335 | 34983 ft | 449 kts | 313° |
| 2026-05-04 09:42 | 36.87704 | 61.63405 | 34990 ft | 449 kts | 313° |
| 2026-05-04 09:43 | 36.92135 | 61.57906 | 34987 ft | 450 kts | 313° |
| 2026-05-04 09:43 | 36.96574 | 61.52392 | 34996 ft | 450 kts | 313° |
| 2026-05-04 09:44 | 37.01010 | 61.46872 | 34993 ft | 450 kts | 313° |
| 2026-05-04 09:46 | 37.18718 | 61.24742 | 34998 ft | 450 kts | 313° |
| 2026-05-04 09:46 | 37.23147 | 61.19180 | 34999 ft | 451 kts | 313° |
| 2026-05-04 09:47 | 37.27554 | 61.13630 | 34996 ft | 451 kts | 313° |
| 2026-05-04 09:49 | 37.45259 | 60.91238 | 34991 ft | 452 kts | 312° |
| 2026-05-04 09:51 | 37.60697 | 60.71582 | 34965 ft | 452 kts | 312° |
| 2026-05-04 09:51 | 37.65116 | 60.65932 | 34966 ft | 453 kts | 312° |
| 2026-05-04 09:52 | 37.69526 | 60.60285 | 34978 ft | 453 kts | 312° |
| 2026-05-04 09:52 | 37.73942 | 60.54619 | 34953 ft | 454 kts | 312° |
| 2026-05-04 09:53 | 37.78295 | 60.48864 | 34953 ft | 453 kts | 310° |
| 2026-05-04 09:53 | 37.82533 | 60.42986 | 34950 ft | 453 kts | 310° |
| 2026-05-04 09:54 | 37.86785 | 60.37116 | 34942 ft | 454 kts | 310° |
| 2026-05-04 09:54 | 37.91066 | 60.31226 | 34947 ft | 455 kts | 310° |
| 2026-05-04 09:55 | 37.95339 | 60.25341 | 34943 ft | 455 kts | 310° |
| 2026-05-04 09:55 | 37.99277 | 60.19096 | 34950 ft | 452 kts | 300° |
| 2026-05-04 09:56 | 38.01967 | 60.11946 | 34927 ft | 450 kts | 288° |
| 2026-05-04 09:56 | 38.03653 | 60.04290 | 34929 ft | 450 kts | 285° |
| 2026-05-04 09:57 | 38.05311 | 59.96638 | 34930 ft | 451 kts | 285° |
| 2026-05-04 09:57 | 38.06960 | 59.88963 | 34924 ft | 451 kts | 285° |
| 2026-05-04 09:58 | 38.08600 | 59.81273 | 34922 ft | 451 kts | 284° |
| 2026-05-04 09:58 | 38.10234 | 59.73571 | 34921 ft | 452 kts | 284° |
| 2026-05-04 10:00 | 38.16724 | 59.42723 | 34914 ft | 452 kts | 284° |
| 2026-05-04 10:04 | 38.27867 | 58.88704 | 34887 ft | 452 kts | 283° |
| 2026-05-04 10:04 | 38.29441 | 58.80958 | 34886 ft | 452 kts | 283° |
| 2026-05-04 10:05 | 38.31012 | 58.73205 | 34886 ft | 452 kts | 283° |
| 2026-05-04 10:05 | 38.32578 | 58.65442 | 34885 ft | 452 kts | 283° |
| 2026-05-04 10:06 | 38.34139 | 58.57680 | 34889 ft | 453 kts | 283° |
| 2026-05-04 10:06 | 38.35698 | 58.49898 | 34881 ft | 454 kts | 283° |
| 2026-05-04 10:08 | 38.41877 | 58.22950 | 34874 ft | 455 kts | 292° |
| 2026-05-04 10:08 | 38.44495 | 58.15605 | 34877 ft | 455 kts | 292° |
| 2026-05-04 10:09 | 38.47073 | 58.08301 | 34873 ft | 455 kts | 292° |
| 2026-05-04 10:09 | 38.49664 | 58.00946 | 34869 ft | 454 kts | 292° |
| 2026-05-04 10:10 | 38.52254 | 57.93583 | 34872 ft | 454 kts | 292° |
| 2026-05-04 10:10 | 38.54832 | 57.86235 | 34893 ft | 452 kts | 292° |
| 2026-05-04 10:11 | 38.57351 | 57.79038 | 34884 ft | 451 kts | 292° |
| 2026-05-04 10:11 | 38.59908 | 57.71712 | 34878 ft | 451 kts | 292° |
| 2026-05-04 10:12 | 38.62152 | 57.64270 | 34869 ft | 448 kts | 285° |
| 2026-05-04 10:12 | 38.63664 | 57.56570 | 34879 ft | 446 kts | 283° |
| 2026-05-04 10:13 | 38.65175 | 57.48871 | 34875 ft | 446 kts | 283° |
| 2026-05-04 10:13 | 38.66677 | 57.41178 | 34868 ft | 446 kts | 283° |
| 2026-05-04 10:14 | 38.68165 | 57.33491 | 34875 ft | 444 kts | 283° |
| 2026-05-04 10:16 | 38.74049 | 57.02794 | 34865 ft | 444 kts | 282° |
| 2026-05-04 10:16 | 38.75507 | 56.95117 | 34859 ft | 444 kts | 282° |
| 2026-05-04 10:17 | 38.76959 | 56.87437 | 34864 ft | 444 kts | 282° |
| 2026-05-04 10:19 | 38.82724 | 56.56659 | 34879 ft | 445 kts | 282° |
| 2026-05-04 10:19 | 38.84156 | 56.48940 | 34879 ft | 444 kts | 282° |
| 2026-05-04 10:20 | 38.85581 | 56.41235 | 34855 ft | 445 kts | 282° |
| 2026-05-04 10:20 | 38.87004 | 56.33497 | 34862 ft | 446 kts | 282° |
| 2026-05-04 10:21 | 38.88424 | 56.25748 | 34867 ft | 446 kts | 281° |
| 2026-05-04 10:21 | 38.89839 | 56.17992 | 34879 ft | 446 kts | 281° |
| 2026-05-04 10:22 | 38.91955 | 56.06346 | 34886 ft | 447 kts | 281° |
| 2026-05-04 10:23 | 38.93360 | 55.98571 | 34869 ft | 447 kts | 281° |
| 2026-05-04 10:25 | 38.98928 | 55.67446 | 34884 ft | 447 kts | 281° |
| 2026-05-04 10:25 | 39.00309 | 55.59644 | 34869 ft | 447 kts | 281° |
| 2026-05-04 10:26 | 39.01689 | 55.51832 | 34874 ft | 448 kts | 281° |
| 2026-05-04 10:26 | 39.02829 | 55.45347 | 34870 ft | 448 kts | 281° |
| 2026-05-04 10:27 | 39.04198 | 55.37541 | 34871 ft | 448 kts | 281° |
| 2026-05-04 10:27 | 39.05564 | 55.29724 | 34876 ft | 448 kts | 281° |
| 2026-05-04 10:28 | 39.06927 | 55.21889 | 34861 ft | 449 kts | 281° |
| 2026-05-04 10:28 | 39.08285 | 55.14050 | 34864 ft | 449 kts | 281° |
| 2026-05-04 10:29 | 39.09638 | 55.06203 | 34865 ft | 449 kts | 281° |
| 2026-05-04 10:29 | 39.10981 | 54.98388 | 34872 ft | 448 kts | 281° |
| 2026-05-04 10:30 | 39.12321 | 54.90555 | 34863 ft | 448 kts | 280° |
| 2026-05-04 10:30 | 39.13655 | 54.82715 | 34855 ft | 448 kts | 280° |
| 2026-05-04 10:31 | 39.14986 | 54.74869 | 34851 ft | 448 kts | 280° |
| 2026-05-04 10:32 | 39.19575 | 54.47501 | 34853 ft | 447 kts | 280° |
| 2026-05-04 10:33 | 39.20885 | 54.39611 | 34865 ft | 447 kts | 280° |
| 2026-05-04 10:33 | 39.22172 | 54.31843 | 34873 ft | 446 kts | 280° |
| 2026-05-04 10:34 | 39.23459 | 54.24032 | 34872 ft | 445 kts | 280° |
| 2026-05-04 10:34 | 39.24736 | 54.16235 | 34870 ft | 444 kts | 280° |
| 2026-05-04 10:35 | 39.26010 | 54.08429 | 34872 ft | 444 kts | 280° |
| 2026-05-04 10:35 | 39.27274 | 54.00640 | 34868 ft | 444 kts | 280° |
| 2026-05-04 10:36 | 39.28535 | 53.92845 | 34876 ft | 443 kts | 280° |
| 2026-05-04 10:36 | 39.29788 | 53.85061 | 34905 ft | 442 kts | 280° |
| 2026-05-04 10:37 | 39.31034 | 53.77283 | 34886 ft | 442 kts | 279° |
| 2026-05-04 10:37 | 39.32274 | 53.69511 | 34892 ft | 442 kts | 279° |
| 2026-05-04 10:39 | 39.36565 | 53.42333 | 34891 ft | 442 kts | 279° |
| 2026-05-04 10:40 | 39.37780 | 53.34559 | 34908 ft | 441 kts | 279° |
| 2026-05-04 10:40 | 39.38987 | 53.26802 | 34908 ft | 440 kts | 279° |
| 2026-05-04 10:41 | 39.40187 | 53.19050 | 34903 ft | 440 kts | 279° |
| 2026-05-04 10:41 | 39.41382 | 53.11295 | 34907 ft | 439 kts | 279° |
| 2026-05-04 10:42 | 39.42571 | 53.03544 | 34902 ft | 439 kts | 279° |
| 2026-05-04 10:42 | 39.43754 | 52.95796 | 34887 ft | 439 kts | 278° |
| 2026-05-04 10:43 | 39.44932 | 52.88046 | 34902 ft | 439 kts | 278° |
| 2026-05-04 10:45 | 39.49567 | 52.57182 | 34892 ft | 436 kts | 278° |
| 2026-05-04 10:45 | 39.50710 | 52.49480 | 34891 ft | 435 kts | 278° |
| 2026-05-04 10:46 | 39.51839 | 52.41833 | 34886 ft | 435 kts | 278° |
| 2026-05-04 10:46 | 39.52972 | 52.34130 | 34871 ft | 436 kts | 277° |
| 2026-05-04 10:47 | 39.54099 | 52.26425 | 34876 ft | 436 kts | 277° |
| 2026-05-04 10:47 | 39.55223 | 52.18702 | 34870 ft | 436 kts | 277° |
| 2026-05-04 10:49 | 39.59673 | 51.87761 | 34875 ft | 438 kts | 277° |
| 2026-05-04 10:50 | 39.60776 | 51.79996 | 34879 ft | 438 kts | 277° |
| 2026-05-04 10:52 | 39.65316 | 51.48908 | 34878 ft | 441 kts | 283° |
| 2026-05-04 10:52 | 39.67392 | 51.41389 | 34875 ft | 443 kts | 286° |
| 2026-05-04 10:54 | 39.75812 | 51.11278 | 34874 ft | 444 kts | 285° |
| 2026-05-04 10:56 | 39.84160 | 50.81056 | 34867 ft | 444 kts | 285° |
| 2026-05-04 10:57 | 39.86235 | 50.73488 | 34874 ft | 444 kts | 285° |
| 2026-05-04 10:57 | 39.88290 | 50.65972 | 34869 ft | 444 kts | 285° |
| 2026-05-04 10:58 | 39.90356 | 50.58390 | 34872 ft | 444 kts | 284° |
| 2026-05-04 10:58 | 39.92415 | 50.50812 | 34870 ft | 444 kts | 284° |
| 2026-05-04 10:59 | 39.94470 | 50.43231 | 34870 ft | 444 kts | 284° |
| 2026-05-04 10:59 | 39.96520 | 50.35636 | 34867 ft | 445 kts | 284° |
| 2026-05-04 11:00 | 39.98568 | 50.28034 | 34870 ft | 445 kts | 284° |
| 2026-05-04 11:02 | 40.06734 | 49.97478 | 34871 ft | 447 kts | 284° |
| 2026-05-04 11:05 | 40.18864 | 49.39430 | 34849 ft | 436 kts | 266° |
| 2026-05-04 11:06 | 40.18844 | 49.31491 | 34852 ft | 437 kts | 266° |
| 2026-05-04 11:06 | 40.18824 | 49.23536 | 34853 ft | 438 kts | 266° |
| 2026-05-04 11:10 | 40.18605 | 48.67755 | 34887 ft | 438 kts | 265° |
| 2026-05-04 11:12 | 40.18338 | 48.37325 | 34870 ft | 436 kts | 265° |
| 2026-05-04 11:12 | 40.18242 | 48.28105 | 34870 ft | 436 kts | 265° |
| 2026-05-04 11:13 | 40.18153 | 48.20173 | 34871 ft | 436 kts | 265° |
| 2026-05-04 11:13 | 40.18075 | 48.13526 | 34872 ft | 436 kts | 265° |
| 2026-05-04 11:14 | 40.17977 | 48.05601 | 34869 ft | 436 kts | 265° |
| 2026-05-04 11:16 | 40.17527 | 47.73867 | 34881 ft | 436 kts | 264° |
| 2026-05-04 11:16 | 40.17401 | 47.65939 | 34881 ft | 436 kts | 264° |
| 2026-05-04 11:17 | 40.17271 | 47.58074 | 34875 ft | 436 kts | 264° |
| 2026-05-04 11:19 | 40.16692 | 47.26247 | 34874 ft | 441 kts | 264° |
| 2026-05-04 11:19 | 40.16534 | 47.18226 | 34882 ft | 442 kts | 264° |
| 2026-05-04 11:20 | 40.16370 | 47.10193 | 34884 ft | 442 kts | 264° |
| 2026-05-04 11:20 | 40.16200 | 47.02158 | 34893 ft | 442 kts | 264° |
| 2026-05-04 11:22 | 40.15460 | 46.69867 | 34864 ft | 445 kts | 264° |
| 2026-05-04 11:23 | 40.15261 | 46.61774 | 34852 ft | 446 kts | 264° |
| 2026-05-04 11:25 | 40.14516 | 46.33412 | 34837 ft | 446 kts | 264° |
| 2026-05-04 11:25 | 40.14293 | 46.25376 | 34818 ft | 445 kts | 264° |
| 2026-05-04 11:27 | 40.13350 | 45.89203 | 34825 ft | 442 kts | 266° |
| 2026-05-04 11:28 | 40.13411 | 45.81163 | 34808 ft | 442 kts | 266° |
| 2026-05-04 11:28 | 40.13434 | 45.73124 | 34791 ft | 443 kts | 266° |
| 2026-05-04 11:29 | 40.13432 | 45.65060 | 34797 ft | 444 kts | 266° |
| 2026-05-04 11:29 | 40.13422 | 45.56978 | 34808 ft | 446 kts | 266° |
| 2026-05-04 11:33 | 40.13197 | 45.00008 | 34811 ft | 450 kts | 265° |
| 2026-05-04 11:33 | 40.13139 | 44.91884 | 34803 ft | 451 kts | 265° |
| 2026-05-04 11:34 | 40.13079 | 44.83702 | 34815 ft | 450 kts | 265° |
| 2026-05-04 11:34 | 40.13011 | 44.75530 | 34811 ft | 449 kts | 265° |
| 2026-05-04 11:35 | 40.12938 | 44.67374 | 34789 ft | 449 kts | 265° |
| 2026-05-04 11:35 | 40.12859 | 44.59214 | 34793 ft | 449 kts | 264° |
| 2026-05-04 11:36 | 40.12774 | 44.51069 | 34789 ft | 448 kts | 264° |
| 2026-05-04 11:36 | 40.12684 | 44.42925 | 34792 ft | 448 kts | 264° |
| 2026-05-04 11:37 | 40.12588 | 44.34797 | 34787 ft | 447 kts | 264° |
| 2026-05-04 11:37 | 40.12487 | 44.26694 | 34781 ft | 446 kts | 264° |
| 2026-05-04 11:38 | 40.12380 | 44.18593 | 34773 ft | 446 kts | 264° |
| 2026-05-04 11:38 | 40.12268 | 44.10495 | 34770 ft | 446 kts | 264° |
| 2026-05-04 11:39 | 40.12149 | 44.02400 | 34775 ft | 445 kts | 263° |
| 2026-05-04 11:41 | 40.11692 | 43.74073 | 34815 ft | 446 kts | 263° |
| 2026-05-04 11:41 | 40.11532 | 43.65969 | 34810 ft | 446 kts | 261° |
| 2026-05-04 11:42 | 40.11090 | 43.57906 | 34848 ft | 445 kts | 261° |
| 2026-05-04 11:42 | 40.10668 | 43.49826 | 34846 ft | 446 kts | 261° |
| 2026-05-04 11:43 | 40.10236 | 43.41747 | 34863 ft | 446 kts | 261° |
| 2026-05-04 11:43 | 40.09793 | 43.33667 | 34865 ft | 446 kts | 261° |
| 2026-05-04 11:44 | 40.09340 | 43.25575 | 34896 ft | 448 kts | 261° |
| 2026-05-04 11:44 | 40.08884 | 43.17503 | 34905 ft | 450 kts | 260° |
| 2026-05-04 11:45 | 40.08414 | 43.09328 | 34935 ft | 452 kts | 260° |
| 2026-05-04 11:45 | 40.07941 | 43.01141 | 34931 ft | 453 kts | 260° |
| 2026-05-04 11:46 | 40.07460 | 42.92936 | 34944 ft | 453 kts | 260° |
| 2026-05-04 11:46 | 40.06975 | 42.84731 | 34940 ft | 454 kts | 260° |
| 2026-05-04 11:47 | 40.06488 | 42.76547 | 34943 ft | 453 kts | 260° |
| 2026-05-04 11:47 | 40.05993 | 42.68331 | 34906 ft | 455 kts | 259° |
| 2026-05-04 11:48 | 40.05490 | 42.60102 | 34904 ft | 455 kts | 259° |
| 2026-05-04 11:48 | 40.04981 | 42.51874 | 34907 ft | 455 kts | 259° |
| 2026-05-04 11:49 | 40.04466 | 42.43647 | 34905 ft | 455 kts | 259° |
| 2026-05-04 11:49 | 40.03924 | 42.35477 | 34905 ft | 455 kts | 259° |
| 2026-05-04 11:50 | 40.03375 | 42.27569 | 34919 ft | 457 kts | 259° |
| 2026-05-04 11:50 | 40.02806 | 42.19379 | 34917 ft | 458 kts | 259° |
| 2026-05-04 11:50 | 40.02527 | 42.15307 | 34905 ft | 439 kts | 259° |
| 2026-05-04 11:51 | 40.02259 | 42.11407 | 34905 ft | 436 kts | 258° |
| 2026-05-04 11:51 | 40.01972 | 42.07425 | 34911 ft | 447 kts | 258° |
| 2026-05-04 11:51 | 40.01675 | 42.03345 | 34910 ft | 458 kts | 258° |
| 2026-05-04 11:52 | 40.01083 | 41.95032 | 34913 ft | 459 kts | 259° |
| 2026-05-04 11:52 | 40.00488 | 41.86719 | 35131 ft | 463 kts | 258° |
| 2026-05-04 11:52 | 40.00184 | 41.82539 | 35593 ft | 463 kts | 259° |
| 2026-05-04 11:53 | 39.99884 | 41.78411 | 36014 ft | 464 kts | 259° |
| 2026-05-04 11:53 | 39.99577 | 41.74224 | 36439 ft | 465 kts | 259° |
| 2026-05-04 11:53 | 39.99273 | 41.70029 | 36860 ft | 466 kts | 259° |
| 2026-05-04 11:53 | 39.98975 | 41.65824 | 37300 ft | 467 kts | 259° |
| 2026-05-04 11:55 | 39.96841 | 41.36416 | 37924 ft | 464 kts | 259° |
| 2026-05-04 11:56 | 39.96258 | 41.28032 | 37930 ft | 466 kts | 263° |
| 2026-05-04 11:56 | 39.96697 | 41.19577 | 37942 ft | 475 kts | 275° |
| 2026-05-04 11:57 | 39.98593 | 41.11177 | 37942 ft | 490 kts | 287° |
| 2026-05-04 11:57 | 40.01174 | 41.02941 | 37940 ft | 490 kts | 286° |
| 2026-05-04 11:58 | 40.03706 | 40.94696 | 37937 ft | 489 kts | 286° |
| 2026-05-04 11:58 | 40.06238 | 40.86425 | 37918 ft | 491 kts | 287° |
| 2026-05-04 11:59 | 40.08771 | 40.78142 | 37909 ft | 491 kts | 287° |
| 2026-05-04 11:59 | 40.11301 | 40.69844 | 37888 ft | 492 kts | 287° |
| 2026-05-04 12:00 | 40.13397 | 40.62943 | 37853 ft | 493 kts | 287° |
| 2026-05-04 12:00 | 40.15919 | 40.54621 | 37854 ft | 493 kts | 287° |
| 2026-05-04 12:01 | 40.18437 | 40.46287 | 37860 ft | 493 kts | 287° |
| 2026-05-04 12:02 | 40.27224 | 40.16992 | 37842 ft | 495 kts | 287° |
| 2026-05-04 12:03 | 40.29727 | 40.08587 | 37820 ft | 496 kts | 287° |
| 2026-05-04 12:03 | 40.32231 | 40.00158 | 37822 ft | 497 kts | 287° |
| 2026-05-04 12:04 | 40.34729 | 39.91721 | 37823 ft | 497 kts | 288° |
| 2026-05-04 12:04 | 40.37225 | 39.83261 | 37812 ft | 498 kts | 287° |
| 2026-05-04 12:05 | 40.39710 | 39.74808 | 37784 ft | 501 kts | 287° |
| 2026-05-04 12:05 | 40.42219 | 39.66251 | 37804 ft | 503 kts | 287° |
| 2026-05-04 12:06 | 40.44719 | 39.57657 | 37817 ft | 505 kts | 287° |
| 2026-05-04 12:06 | 40.47219 | 39.49025 | 37811 ft | 506 kts | 287° |
| 2026-05-04 12:07 | 40.49716 | 39.40386 | 37817 ft | 505 kts | 287° |
| 2026-05-04 12:07 | 40.52205 | 39.31746 | 37807 ft | 505 kts | 287° |
| 2026-05-04 12:08 | 40.54684 | 39.23111 | 37797 ft | 505 kts | 288° |
| 2026-05-04 12:08 | 40.57151 | 39.14494 | 37794 ft | 503 kts | 288° |
| 2026-05-04 12:09 | 40.59610 | 39.05867 | 37787 ft | 503 kts | 287° |
| 2026-05-04 12:09 | 40.62060 | 38.97248 | 37806 ft | 503 kts | 288° |
| 2026-05-04 12:10 | 40.64507 | 38.88603 | 37801 ft | 505 kts | 287° |
| 2026-05-04 12:10 | 40.66914 | 38.79927 | 37804 ft | 504 kts | 287° |
| 2026-05-04 12:11 | 40.69311 | 38.71248 | 37804 ft | 504 kts | 287° |
| 2026-05-04 12:11 | 40.71709 | 38.62553 | 37810 ft | 505 kts | 287° |
| 2026-05-04 12:12 | 40.74100 | 38.53857 | 37807 ft | 505 kts | 287° |
| 2026-05-04 12:12 | 40.76485 | 38.45146 | 37813 ft | 505 kts | 287° |
| 2026-05-04 12:14 | 40.85976 | 38.10191 | 37848 ft | 507 kts | 287° |
| 2026-05-04 12:15 | 40.88344 | 38.01396 | 37840 ft | 508 kts | 287° |
| 2026-05-04 12:15 | 40.90699 | 37.92618 | 37832 ft | 507 kts | 287° |
| 2026-05-04 12:16 | 40.93050 | 37.83821 | 37821 ft | 507 kts | 287° |
| 2026-05-04 12:16 | 40.95389 | 37.75038 | 37809 ft | 507 kts | 287° |
| 2026-05-04 12:17 | 40.97722 | 37.66247 | 37804 ft | 506 kts | 287° |
| 2026-05-04 12:17 | 41.00049 | 37.57449 | 37798 ft | 506 kts | 287° |
| 2026-05-04 12:18 | 41.02364 | 37.48657 | 37795 ft | 506 kts | 287° |
| 2026-05-04 12:18 | 41.04662 | 37.39903 | 37788 ft | 506 kts | 287° |
| 2026-05-04 12:19 | 41.06966 | 37.31095 | 37788 ft | 506 kts | 287° |
| 2026-05-04 12:19 | 41.09266 | 37.22273 | 37788 ft | 506 kts | 287° |
| 2026-05-04 12:20 | 41.11557 | 37.13448 | 37802 ft | 506 kts | 287° |
| 2026-05-04 12:20 | 41.13843 | 37.04615 | 37801 ft | 506 kts | 287° |
| 2026-05-04 12:21 | 41.16119 | 36.95790 | 37802 ft | 506 kts | 287° |
| 2026-05-04 12:21 | 41.18387 | 36.86958 | 37809 ft | 505 kts | 287° |
| 2026-05-04 12:22 | 41.20645 | 36.78135 | 37817 ft | 505 kts | 287° |
| 2026-05-04 12:22 | 41.22895 | 36.69314 | 37824 ft | 505 kts | 287° |
| 2026-05-04 12:23 | 41.25143 | 36.60468 | 37831 ft | 505 kts | 287° |
| 2026-05-04 12:23 | 41.27386 | 36.51629 | 37778 ft | 505 kts | 287° |
| 2026-05-04 12:24 | 41.29644 | 36.42782 | 37797 ft | 505 kts | 287° |
| 2026-05-04 12:24 | 41.31901 | 36.33934 | 37808 ft | 505 kts | 287° |
| 2026-05-04 12:25 | 41.34151 | 36.25062 | 37803 ft | 506 kts | 288° |
| 2026-05-04 12:25 | 41.36397 | 36.16173 | 37812 ft | 508 kts | 288° |
| 2026-05-04 12:26 | 41.38642 | 36.07253 | 37829 ft | 508 kts | 287° |
| 2026-05-04 12:26 | 41.40882 | 35.98320 | 37820 ft | 509 kts | 287° |
| 2026-05-04 12:27 | 41.43125 | 35.89338 | 37793 ft | 512 kts | 288° |
| 2026-05-04 12:27 | 41.45351 | 35.80395 | 37803 ft | 513 kts | 288° |
| 2026-05-04 12:28 | 41.47584 | 35.71389 | 37839 ft | 513 kts | 287° |
| 2026-05-04 12:28 | 41.49816 | 35.62349 | 37840 ft | 513 kts | 288° |
| 2026-05-04 12:29 | 41.52056 | 35.53244 | 37840 ft | 513 kts | 287° |
| 2026-05-04 12:29 | 41.54261 | 35.44246 | 37847 ft | 513 kts | 287° |
| 2026-05-04 12:30 | 41.56469 | 35.35194 | 37838 ft | 512 kts | 288° |
| 2026-05-04 12:30 | 41.58667 | 35.26156 | 37831 ft | 511 kts | 288° |
| 2026-05-04 12:31 | 41.60856 | 35.17119 | 37823 ft | 511 kts | 288° |
| 2026-05-04 12:31 | 41.63033 | 35.08095 | 37816 ft | 510 kts | 288° |
| 2026-05-04 12:32 | 41.66279 | 34.94574 | 37821 ft | 508 kts | 288° |
| 2026-05-04 12:33 | 41.68430 | 34.85573 | 37813 ft | 507 kts | 288° |
| 2026-05-04 12:33 | 41.70570 | 34.76579 | 37802 ft | 507 kts | 288° |
| 2026-05-04 12:34 | 41.72702 | 34.67580 | 37796 ft | 507 kts | 288° |
| 2026-05-04 12:34 | 41.74818 | 34.58629 | 37805 ft | 506 kts | 288° |
| 2026-05-04 12:35 | 41.76577 | 34.51148 | 37798 ft | 506 kts | 288° |
| 2026-05-04 12:35 | 41.79040 | 34.40625 | 37781 ft | 507 kts | 288° |
| 2026-05-04 12:36 | 41.81134 | 34.31650 | 37794 ft | 509 kts | 288° |
| 2026-05-04 12:36 | 41.83243 | 34.22574 | 37796 ft | 511 kts | 288° |
| 2026-05-04 12:37 | 41.85322 | 34.13589 | 37817 ft | 512 kts | 288° |
| 2026-05-04 12:37 | 41.87426 | 34.04458 | 37824 ft | 510 kts | 288° |
| 2026-05-04 12:37 | 41.88453 | 33.99983 | 37812 ft | 494 kts | 288° |
| 2026-05-04 12:38 | 41.89447 | 33.95642 | 37815 ft | 479 kts | 288° |
| 2026-05-04 12:38 | 41.90409 | 33.91436 | 37819 ft | 465 kts | 288° |
| 2026-05-04 12:38 | 41.91343 | 33.87343 | 37829 ft | 451 kts | 288° |
| 2026-05-04 12:38 | 41.92246 | 33.83381 | 37811 ft | 439 kts | 288° |
| 2026-05-04 12:39 | 41.93126 | 33.79514 | 37807 ft | 426 kts | 288° |
| 2026-05-04 12:39 | 41.93976 | 33.75770 | 37822 ft | 413 kts | 288° |
| 2026-05-04 12:39 | 41.94802 | 33.72126 | 37825 ft | 401 kts | 288° |
| 2026-05-04 12:39 | 41.95591 | 33.68599 | 37822 ft | 389 kts | 287° |
| 2026-05-04 12:40 | 41.96273 | 33.65142 | 37820 ft | 377 kts | 285° |
| 2026-05-04 12:40 | 41.96896 | 33.61787 | 37815 ft | 364 kts | 285° |
| 2026-05-04 12:40 | 41.97494 | 33.58563 | 37827 ft | 351 kts | 286° |
| 2026-05-04 12:40 | 41.98081 | 33.55444 | 37824 ft | 337 kts | 286° |
| 2026-05-04 12:41 | 41.98647 | 33.52463 | 37735 ft | 325 kts | 286° |
| 2026-05-04 12:41 | 41.99212 | 33.49521 | 37266 ft | 326 kts | 287° |
| 2026-05-04 12:41 | 41.99789 | 33.46545 | 36694 ft | 332 kts | 288° |
| 2026-05-04 12:41 | 42.00380 | 33.43536 | 36266 ft | 333 kts | 288° |
| 2026-05-04 12:42 | 42.00972 | 33.40557 | 36036 ft | 327 kts | 288° |
| 2026-05-04 12:42 | 42.01558 | 33.37626 | 35796 ft | 322 kts | 289° |
| 2026-05-04 12:42 | 42.02142 | 33.34730 | 35458 ft | 321 kts | 289° |
| 2026-05-04 12:42 | 42.02733 | 33.31832 | 35057 ft | 322 kts | 290° |
| 2026-05-04 12:43 | 42.03333 | 33.28927 | 34693 ft | 322 kts | 290° |
| 2026-05-04 12:43 | 42.03937 | 33.26029 | 34381 ft | 321 kts | 290° |
| 2026-05-04 12:43 | 42.04541 | 33.23156 | 34093 ft | 318 kts | 291° |
| 2026-05-04 12:43 | 42.05147 | 33.20297 | 33773 ft | 317 kts | 291° |
| 2026-05-04 12:44 | 42.05757 | 33.17449 | 33359 ft | 317 kts | 292° |
| 2026-05-04 12:44 | 42.06361 | 33.14645 | 33004 ft | 316 kts | 293° |
| 2026-05-04 12:44 | 42.06984 | 33.11780 | 32668 ft | 314 kts | 294° |
| 2026-05-04 12:44 | 42.07591 | 33.09002 | 32346 ft | 312 kts | 294° |
| 2026-05-04 12:45 | 42.08207 | 33.06206 | 32025 ft | 311 kts | 295° |
| 2026-05-04 12:45 | 42.08623 | 33.04328 | 31800 ft | 310 kts | 295° |
| 2026-05-04 12:45 | 42.09442 | 33.00655 | 31383 ft | 309 kts | 296° |
| 2026-05-04 12:45 | 42.10062 | 32.97896 | 31078 ft | 307 kts | 296° |
| 2026-05-04 12:46 | 42.10684 | 32.95148 | 30771 ft | 306 kts | 297° |
| 2026-05-04 12:46 | 42.11307 | 32.92414 | 30477 ft | 305 kts | 297° |
| 2026-05-04 12:46 | 42.11929 | 32.89701 | 30188 ft | 303 kts | 298° |
| 2026-05-04 12:46 | 42.12556 | 32.86987 | 29889 ft | 302 kts | 299° |
| 2026-05-04 12:47 | 42.13181 | 32.84299 | 29568 ft | 299 kts | 299° |
| 2026-05-04 12:47 | 42.13797 | 32.81655 | 29331 ft | 294 kts | 299° |
| 2026-05-04 12:47 | 42.14406 | 32.79053 | 29006 ft | 292 kts | 299° |
| 2026-05-04 12:47 | 42.15025 | 32.76444 | 28635 ft | 292 kts | 299° |
| 2026-05-04 12:48 | 42.15439 | 32.74718 | 28424 ft | 292 kts | 299° |
| 2026-05-04 12:48 | 42.16063 | 32.72134 | 28133 ft | 290 kts | 299° |
| 2026-05-04 12:48 | 42.16690 | 32.69560 | 27835 ft | 287 kts | 299° |
| 2026-05-04 12:48 | 42.17315 | 32.67013 | 27516 ft | 286 kts | 299° |
| 2026-05-04 12:49 | 42.17945 | 32.64476 | 27215 ft | 285 kts | 300° |
| 2026-05-04 12:49 | 42.18578 | 32.61951 | 26915 ft | 283 kts | 300° |
| 2026-05-04 12:49 | 42.19211 | 32.59455 | 26623 ft | 282 kts | 300° |
| 2026-05-04 12:49 | 42.19848 | 32.56964 | 26332 ft | 280 kts | 300° |
| 2026-05-04 12:50 | 42.20489 | 32.54485 | 26043 ft | 279 kts | 300° |
| 2026-05-04 12:50 | 42.21132 | 32.52020 | 25757 ft | 278 kts | 300° |
| 2026-05-04 12:50 | 42.21778 | 32.49567 | 25484 ft | 276 kts | 300° |
| 2026-05-04 12:50 | 42.22426 | 32.47133 | 25207 ft | 275 kts | 300° |
| 2026-05-04 12:51 | 42.23078 | 32.44712 | 24926 ft | 274 kts | 300° |
| 2026-05-04 12:51 | 42.23733 | 32.42301 | 24639 ft | 273 kts | 300° |
| 2026-05-04 12:51 | 42.24387 | 32.39919 | 24370 ft | 272 kts | 301° |
| 2026-05-04 12:51 | 42.25047 | 32.37541 | 24113 ft | 270 kts | 301° |
| 2026-05-04 12:52 | 42.25710 | 32.35175 | 23841 ft | 269 kts | 301° |
| 2026-05-04 12:52 | 42.26377 | 32.32820 | 23578 ft | 268 kts | 301° |
| 2026-05-04 12:52 | 42.27050 | 32.30470 | 23295 ft | 267 kts | 301° |
| 2026-05-04 12:52 | 42.27722 | 32.28143 | 22991 ft | 265 kts | 301° |
| 2026-05-04 12:53 | 42.28396 | 32.25836 | 22706 ft | 263 kts | 301° |
| 2026-05-04 12:53 | 42.29072 | 32.23545 | 22410 ft | 260 kts | 301° |
| 2026-05-04 12:53 | 42.29738 | 32.21276 | 22189 ft | 265 kts | 295° |
| 2026-05-04 12:53 | 42.30321 | 32.18865 | 22159 ft | 273 kts | 290° |
| 2026-05-04 12:54 | 42.30756 | 32.16381 | 22319 ft | 271 kts | 284° |
| 2026-05-04 12:54 | 42.31035 | 32.13864 | 22438 ft | 272 kts | 279° |
| 2026-05-04 12:54 | 42.31159 | 32.11329 | 22471 ft | 277 kts | 274° |
| 2026-05-04 12:54 | 42.31146 | 32.08687 | 22613 ft | 285 kts | 274° |
| 2026-05-04 12:55 | 42.31111 | 32.06009 | 23376 ft | 275 kts | 275° |
| 2026-05-04 12:55 | 42.31076 | 32.03502 | 23977 ft | 269 kts | 275° |
| 2026-05-04 12:55 | 42.31047 | 32.00906 | 24314 ft | 277 kts | 276° |
| 2026-05-04 12:55 | 42.31008 | 31.98291 | 24254 ft | 286 kts | 275° |
| 2026-05-04 12:56 | 42.30884 | 31.95559 | 23926 ft | 301 kts | 269° |
| 2026-05-04 12:56 | 42.30754 | 31.92686 | 24059 ft | 313 kts | 276° |
| 2026-05-04 12:56 | 42.30918 | 31.89656 | 24204 ft | 325 kts | 285° |
| 2026-05-04 12:56 | 42.31329 | 31.86635 | 24303 ft | 338 kts | 289° |
| 2026-05-04 12:57 | 42.31893 | 31.83489 | 24456 ft | 352 kts | 291° |
| 2026-05-04 12:57 | 42.32531 | 31.80218 | 24582 ft | 368 kts | 291° |
| 2026-05-04 12:57 | 42.33204 | 31.76810 | 24720 ft | 383 kts | 291° |
| 2026-05-04 12:57 | 42.33899 | 31.73262 | 24870 ft | 398 kts | 291° |
| 2026-05-04 12:58 | 42.34611 | 31.69584 | 25006 ft | 412 kts | 290° |
| 2026-05-04 12:58 | 42.35343 | 31.65775 | 25150 ft | 425 kts | 290° |
| 2026-05-04 12:58 | 42.36095 | 31.61847 | 25277 ft | 438 kts | 290° |
| 2026-05-04 12:58 | 42.36869 | 31.57797 | 25413 ft | 451 kts | 290° |
| 2026-05-04 12:59 | 42.37660 | 31.53645 | 25515 ft | 463 kts | 290° |
| 2026-05-04 12:59 | 42.38473 | 31.49371 | 25641 ft | 475 kts | 290° |
| 2026-05-04 12:59 | 42.39303 | 31.44993 | 25894 ft | 484 kts | 290° |
| 2026-05-04 12:59 | 42.40137 | 31.40570 | 26366 ft | 487 kts | 290° |
| 2026-05-04 13:00 | 42.40977 | 31.36110 | 26854 ft | 491 kts | 290° |
| 2026-05-04 13:00 | 42.41823 | 31.31614 | 27395 ft | 495 kts | 290° |
| 2026-05-04 13:00 | 42.42678 | 31.27070 | 27922 ft | 500 kts | 290° |
| 2026-05-04 13:00 | 42.43537 | 31.22492 | 28424 ft | 504 kts | 290° |
| 2026-05-04 13:01 | 42.44402 | 31.17875 | 28836 ft | 509 kts | 290° |
| 2026-05-04 13:01 | 42.45275 | 31.13207 | 29313 ft | 514 kts | 290° |
| 2026-05-04 13:01 | 42.46153 | 31.08497 | 29814 ft | 518 kts | 290° |
| 2026-05-04 13:01 | 42.47035 | 31.03742 | 30276 ft | 521 kts | 289° |
| 2026-05-04 13:02 | 42.47913 | 30.98986 | 30840 ft | 521 kts | 289° |
| 2026-05-04 13:02 | 42.48781 | 30.94275 | 31372 ft | 523 kts | 289° |
| 2026-05-04 13:02 | 42.49663 | 30.89486 | 31874 ft | 525 kts | 289° |
| 2026-05-04 13:02 | 42.50544 | 30.84690 | 32432 ft | 525 kts | 288° |
| 2026-05-04 13:03 | 42.51421 | 30.79893 | 33163 ft | 522 kts | 288° |
| 2026-05-04 13:03 | 42.52289 | 30.75137 | 33915 ft | 519 kts | 288° |
| 2026-05-04 13:03 | 42.53151 | 30.70401 | 34560 ft | 515 kts | 288° |
| 2026-05-04 13:03 | 42.54006 | 30.65699 | 35133 ft | 514 kts | 287° |
| 2026-05-04 13:04 | 42.54859 | 30.61000 | 35692 ft | 512 kts | 287° |
| 2026-05-04 13:04 | 42.55705 | 30.56324 | 36273 ft | 510 kts | 287° |
| 2026-05-04 13:04 | 42.56548 | 30.51655 | 36769 ft | 510 kts | 286° |
| 2026-05-04 13:04 | 42.57389 | 30.46983 | 37237 ft | 510 kts | 286° |
| 2026-05-04 13:05 | 42.58229 | 30.42308 | 37715 ft | 510 kts | 286° |
| 2026-05-04 13:05 | 42.59070 | 30.37609 | 37921 ft | 516 kts | 286° |
| 2026-05-04 13:05 | 42.59968 | 30.32956 | 37928 ft | 504 kts | 290° |
| 2026-05-04 13:06 | 42.62724 | 30.24310 | 37934 ft | 498 kts | 302° |
| 2026-05-04 13:06 | 42.66674 | 30.16578 | 37938 ft | 496 kts | 311° |
| 2026-05-04 13:06 | 42.68746 | 30.12940 | 37937 ft | 479 kts | 310° |
| 2026-05-04 13:07 | 42.70744 | 30.09399 | 37946 ft | 464 kts | 310° |
| 2026-05-04 13:07 | 42.72675 | 30.05967 | 37946 ft | 450 kts | 311° |
| 2026-05-04 13:07 | 42.74552 | 30.02638 | 37948 ft | 436 kts | 311° |
| 2026-05-04 13:07 | 42.76371 | 29.99412 | 37951 ft | 423 kts | 311° |
| 2026-05-04 13:08 | 42.78137 | 29.96281 | 37937 ft | 410 kts | 311° |
| 2026-05-04 13:08 | 42.79845 | 29.93251 | 37952 ft | 397 kts | 310° |
| 2026-05-04 13:08 | 42.81500 | 29.90309 | 37957 ft | 385 kts | 311° |
| 2026-05-04 13:08 | 42.83098 | 29.87466 | 37957 ft | 372 kts | 310° |
| 2026-05-04 13:09 | 42.84647 | 29.84703 | 37965 ft | 360 kts | 311° |
| 2026-05-04 13:09 | 42.86140 | 29.82041 | 37966 ft | 347 kts | 311° |
| 2026-05-04 13:09 | 42.87558 | 29.79510 | 37965 ft | 334 kts | 311° |
| 2026-05-04 13:09 | 42.88956 | 29.77019 | 37965 ft | 320 kts | 311° |
| 2026-05-04 13:10 | 42.90283 | 29.74649 | 37886 ft | 315 kts | 311° |
| 2026-05-04 13:10 | 42.91629 | 29.72245 | 37772 ft | 323 kts | 310° |
| 2026-05-04 13:10 | 42.93025 | 29.69711 | 37196 ft | 347 kts | 311° |
| 2026-05-04 13:10 | 42.94535 | 29.67027 | 36618 ft | 375 kts | 311° |
| 2026-05-04 13:11 | 42.96176 | 29.64114 | 36524 ft | 388 kts | 311° |
| 2026-05-04 13:11 | 42.99504 | 29.58158 | 36687 ft | 406 kts | 310° |
| 2026-05-04 13:12 | 43.02998 | 29.51872 | 36846 ft | 424 kts | 310° |
| 2026-05-04 13:12 | 43.04796 | 29.48631 | 36950 ft | 433 kts | 310° |
| 2026-05-04 13:12 | 43.06634 | 29.45314 | 37015 ft | 442 kts | 310° |
| 2026-05-04 13:13 | 43.10415 | 29.38481 | 37185 ft | 459 kts | 310° |
| 2026-05-04 13:13 | 43.14329 | 29.31389 | 37378 ft | 475 kts | 309° |
| 2026-05-04 13:14 | 43.18373 | 29.24046 | 37534 ft | 491 kts | 309° |
| 2026-05-04 13:14 | 43.20440 | 29.20287 | 37718 ft | 497 kts | 309° |
| 2026-05-04 13:14 | 43.22525 | 29.16487 | 37983 ft | 501 kts | 309° |
| 2026-05-04 13:15 | 43.26674 | 29.08906 | 38001 ft | 493 kts | 309° |
| 2026-05-04 13:15 | 43.30802 | 29.01352 | 38001 ft | 495 kts | 309° |
| 2026-05-04 13:16 | 43.34927 | 28.93787 | 38002 ft | 494 kts | 309° |
| 2026-05-04 13:16 | 43.39035 | 28.86230 | 38007 ft | 494 kts | 309° |
| 2026-05-04 13:17 | 43.43149 | 28.78645 | 38012 ft | 494 kts | 309° |
| 2026-05-04 13:17 | 43.47245 | 28.71072 | 38002 ft | 493 kts | 309° |
| 2026-05-04 13:18 | 43.51331 | 28.63498 | 37995 ft | 492 kts | 309° |
| 2026-05-04 13:18 | 43.55409 | 28.55920 | 38000 ft | 492 kts | 308° |
| 2026-05-04 13:19 | 43.59476 | 28.48342 | 37994 ft | 492 kts | 308° |
| 2026-05-04 13:19 | 43.63542 | 28.40748 | 37990 ft | 492 kts | 308° |
| 2026-05-04 13:20 | 43.67602 | 28.33144 | 37993 ft | 492 kts | 308° |
| 2026-05-04 13:20 | 43.71652 | 28.25539 | 37992 ft | 492 kts | 308° |
| 2026-05-04 13:21 | 43.75704 | 28.17913 | 37971 ft | 492 kts | 308° |
| 2026-05-04 13:21 | 43.79749 | 28.10280 | 37990 ft | 492 kts | 307° |
| 2026-05-04 13:22 | 43.83794 | 28.02624 | 37992 ft | 493 kts | 307° |
| 2026-05-04 13:22 | 43.87847 | 27.94933 | 38001 ft | 495 kts | 307° |
| 2026-05-04 13:23 | 43.91901 | 27.87222 | 38006 ft | 495 kts | 307° |
| 2026-05-04 13:23 | 43.95932 | 27.79532 | 38021 ft | 496 kts | 307° |
| 2026-05-04 13:24 | 43.99986 | 27.71778 | 38026 ft | 497 kts | 307° |
| 2026-05-04 13:24 | 44.04040 | 27.64004 | 38008 ft | 497 kts | 307° |
| 2026-05-04 13:25 | 44.10102 | 27.52343 | 38056 ft | 495 kts | 307° |
| 2026-05-04 13:25 | 44.14129 | 27.44569 | 38051 ft | 495 kts | 307° |
| 2026-05-04 13:26 | 44.18148 | 27.36790 | 38015 ft | 494 kts | 307° |
| 2026-05-04 13:26 | 44.22148 | 27.29026 | 38029 ft | 493 kts | 306° |
| 2026-05-04 13:27 | 44.26144 | 27.21251 | 38022 ft | 493 kts | 307° |
| 2026-05-04 13:27 | 44.30125 | 27.13484 | 38049 ft | 492 kts | 306° |
| 2026-05-04 13:28 | 44.34101 | 27.05705 | 38055 ft | 491 kts | 306° |
| 2026-05-04 13:28 | 44.38030 | 26.97997 | 38044 ft | 490 kts | 306° |
| 2026-05-04 13:29 | 44.41976 | 26.90237 | 38043 ft | 489 kts | 306° |
| 2026-05-04 13:29 | 44.45911 | 26.82476 | 38039 ft | 489 kts | 306° |
| 2026-05-04 13:30 | 44.49836 | 26.74712 | 38035 ft | 488 kts | 306° |
| 2026-05-04 13:30 | 44.53755 | 26.66946 | 38029 ft | 488 kts | 306° |
| 2026-05-04 13:31 | 44.57616 | 26.59282 | 38039 ft | 473 kts | 306° |
| 2026-05-04 13:31 | 44.61041 | 26.51452 | 38041 ft | 479 kts | 299° |
| 2026-05-04 13:32 | 44.64293 | 26.43113 | 38035 ft | 488 kts | 300° |
| 2026-05-04 13:32 | 44.67575 | 26.34813 | 38040 ft | 487 kts | 300° |
| 2026-05-04 13:33 | 44.70855 | 26.26472 | 38031 ft | 488 kts | 299° |
| 2026-05-04 13:33 | 44.74122 | 26.18114 | 38039 ft | 488 kts | 300° |
| 2026-05-04 13:34 | 44.77858 | 26.08513 | 38054 ft | 484 kts | 299° |
| 2026-05-04 13:34 | 44.82319 | 25.96945 | 38543 ft | 291 kts | 299° |
| 2026-05-04 13:34 | 44.83166 | 25.94698 | 39334 ft | 239 kts | 299° |
| 2026-05-04 13:35 | 44.83939 | 25.92631 | 38948 ft | 253 kts | 300° |
| 2026-05-04 13:35 | 44.86055 | 25.87076 | 36034 ft | 361 kts | 299° |
| 2026-05-04 13:35 | 44.87194 | 25.84088 | 37122 ft | 329 kts | 299° |
| 2026-05-04 13:36 | 44.88232 | 25.81237 | 37191 ft | 337 kts | 297° |
| 2026-05-04 13:36 | 44.89317 | 25.78124 | 36354 ft | 370 kts | 296° |
| 2026-05-04 13:36 | 44.90467 | 25.74795 | 35867 ft | 393 kts | 300° |
| 2026-05-04 13:36 | 44.92551 | 25.69836 | 36187 ft | 399 kts | 302° |
| 2026-05-04 13:37 | 44.95356 | 25.63018 | 36707 ft | 404 kts | 300° |
| 2026-05-04 13:37 | 44.98050 | 25.56053 | 37311 ft | 408 kts | 299° |
| 2026-05-04 13:37 | 45.00758 | 25.48934 | 37783 ft | 414 kts | 299° |
| 2026-05-04 13:37 | 45.03507 | 25.41692 | 38026 ft | 426 kts | 299° |
| 2026-05-04 13:38 | 45.06354 | 25.34173 | 38026 ft | 443 kts | 299° |
| 2026-05-04 13:38 | 45.09309 | 25.26346 | 38026 ft | 459 kts | 300° |
| 2026-05-04 13:38 | 45.12372 | 25.18218 | 38026 ft | 476 kts | 300° |
| 2026-05-04 13:39 | 45.19203 | 24.99990 | 38013 ft | 483 kts | 299° |
| 2026-05-04 13:39 | 45.27182 | 24.78539 | 38038 ft | 481 kts | 300° |
| 2026-05-04 13:40 | 45.33426 | 24.61641 | 38067 ft | 485 kts | 298° |
| 2026-05-04 13:40 | 45.39672 | 24.44622 | 38074 ft | 485 kts | 300° |
| 2026-05-04 13:41 | 45.45893 | 24.27576 | 38075 ft | 484 kts | 299° |
| 2026-05-04 13:41 | 45.52075 | 24.10521 | 38081 ft | 484 kts | 300° |
| 2026-05-04 13:42 | 45.61282 | 23.84931 | 38050 ft | 484 kts | 298° |
| 2026-05-04 13:42 | 45.67399 | 23.67782 | 38059 ft | 484 kts | 300° |
| 2026-05-04 13:43 | 45.73489 | 23.50614 | 38062 ft | 484 kts | 299° |
| 2026-05-04 13:43 | 45.79548 | 23.33413 | 38068 ft | 484 kts | 298° |
| 2026-05-04 13:44 | 45.87568 | 23.10478 | 38073 ft | 484 kts | 298° |
| 2026-05-04 13:44 | 45.97996 | 22.80359 | 38079 ft | 482 kts | 298° |
| 2026-05-04 13:45 | 46.03923 | 22.63085 | 38083 ft | 481 kts | 298° |
| 2026-05-04 13:45 | 46.09813 | 22.45806 | 38086 ft | 480 kts | 298° |
| 2026-05-04 13:46 | 46.15667 | 22.28522 | 38089 ft | 478 kts | 298° |
| 2026-05-04 13:46 | 46.21471 | 22.11272 | 38087 ft | 477 kts | 297° |
| 2026-05-04 13:47 | 46.27233 | 21.94033 | 38100 ft | 476 kts | 297° |
| 2026-05-04 13:47 | 46.32962 | 21.76780 | 38089 ft | 475 kts | 297° |
| 2026-05-04 13:48 | 46.38660 | 21.59503 | 38089 ft | 475 kts | 297° |
| 2026-05-04 13:48 | 46.44327 | 21.42217 | 38091 ft | 475 kts | 297° |
| 2026-05-04 13:49 | 46.49985 | 21.24890 | 38097 ft | 475 kts | 297° |
| 2026-05-04 13:49 | 46.55897 | 21.07880 | 38098 ft | 475 kts | 298° |
| 2026-05-04 13:50 | 46.61822 | 20.90750 | 38100 ft | 474 kts | 298° |
| 2026-05-04 13:50 | 46.67698 | 20.73604 | 38090 ft | 473 kts | 298° |
| 2026-05-04 13:51 | 46.73529 | 20.56477 | 38098 ft | 471 kts | 298° |
| 2026-05-04 13:51 | 46.79298 | 20.39420 | 38085 ft | 469 kts | 298° |
| 2026-05-04 13:52 | 46.87563 | 20.14792 | 38071 ft | 469 kts | 297° |
| 2026-05-04 13:53 | 46.93276 | 19.97629 | 38089 ft | 469 kts | 297° |
| 2026-05-04 13:53 | 46.98966 | 19.80419 | 38085 ft | 470 kts | 297° |
| 2026-05-04 13:54 | 47.07447 | 19.54557 | 38079 ft | 469 kts | 297° |
| 2026-05-04 13:55 | 47.15854 | 19.28661 | 38074 ft | 468 kts | 296° |
| 2026-05-04 13:55 | 47.24187 | 19.02726 | 38072 ft | 467 kts | 296° |
| 2026-05-04 13:56 | 47.29697 | 18.85437 | 38074 ft | 466 kts | 296° |
| 2026-05-04 13:57 | 47.37894 | 18.59491 | 38071 ft | 465 kts | 295° |
| 2026-05-04 13:58 | 47.48681 | 18.24934 | 38032 ft | 463 kts | 295° |
| 2026-05-04 13:58 | 47.58336 | 17.93599 | 38016 ft | 462 kts | 295° |
| 2026-05-04 13:59 | 47.63627 | 17.76260 | 38056 ft | 461 kts | 295° |
| 2026-05-04 14:00 | 47.71499 | 17.50230 | 38032 ft | 461 kts | 294° |
| 2026-05-04 14:00 | 47.79274 | 17.24261 | 37998 ft | 459 kts | 294° |
| 2026-05-04 14:01 | 47.84378 | 17.06816 | 37978 ft | 459 kts | 292° |
| 2026-05-04 14:02 | 47.92031 | 16.80768 | 37953 ft | 458 kts | 293° |
| 2026-05-04 14:02 | 47.97084 | 16.63285 | 37973 ft | 458 kts | 293° |
| 2026-05-04 14:03 | 48.02137 | 16.45669 | 37961 ft | 459 kts | 293° |
| 2026-05-04 14:03 | 48.07144 | 16.28095 | 37964 ft | 460 kts | 292° |
| 2026-05-04 14:04 | 48.14599 | 16.01673 | 37950 ft | 460 kts | 292° |
| 2026-05-04 14:04 | 48.19504 | 15.84136 | 37957 ft | 459 kts | 292° |
| 2026-05-04 14:05 | 48.26836 | 15.57673 | 37936 ft | 457 kts | 291° |
| 2026-05-04 14:06 | 48.31681 | 15.40021 | 37939 ft | 457 kts | 291° |
| 2026-05-04 14:06 | 48.36437 | 15.22562 | 37945 ft | 458 kts | 291° |
| 2026-05-04 14:07 | 48.41243 | 15.04792 | 37944 ft | 460 kts | 291° |
| 2026-05-04 14:07 | 48.45226 | 14.89958 | 37955 ft | 461 kts | 290° |
| 2026-05-04 14:08 | 48.50817 | 14.68981 | 37960 ft | 461 kts | 290° |
| 2026-05-04 14:08 | 48.54766 | 14.54047 | 37960 ft | 461 kts | 290° |
| 2026-05-04 14:09 | 48.61832 | 14.27082 | 37959 ft | 459 kts | 289° |
| 2026-05-04 14:10 | 48.68801 | 14.00174 | 37943 ft | 458 kts | 289° |
| 2026-05-04 14:10 | 48.73412 | 13.82197 | 37944 ft | 458 kts | 289° |
| 2026-05-04 14:11 | 48.77861 | 13.64131 | 37949 ft | 458 kts | 288° |
| 2026-05-04 14:11 | 48.84417 | 13.36864 | 37954 ft | 459 kts | 288° |
| 2026-05-04 14:12 | 48.88722 | 13.18615 | 37954 ft | 459 kts | 287° |
| 2026-05-04 14:13 | 48.95128 | 12.91173 | 37954 ft | 459 kts | 287° |
| 2026-05-04 14:13 | 48.99360 | 12.72852 | 37959 ft | 459 kts | 287° |
| 2026-05-04 14:14 | 49.03567 | 12.54485 | 37953 ft | 458 kts | 287° |
| 2026-05-04 14:14 | 49.09809 | 12.26931 | 37949 ft | 460 kts | 287° |
| 2026-05-04 14:15 | 49.18057 | 11.89961 | 37965 ft | 459 kts | 286° |
| 2026-05-04 14:16 | 49.24788 | 11.59301 | 37963 ft | 458 kts | 286° |
| 2026-05-04 14:17 | 49.29216 | 11.38876 | 37963 ft | 459 kts | 286° |
| 2026-05-04 14:18 | 49.35017 | 11.11811 | 37967 ft | 460 kts | 285° |
| 2026-05-04 14:19 | 49.44819 | 10.75520 | 38007 ft | 463 kts | 293° |
| 2026-05-04 14:19 | 49.50579 | 10.57657 | 37998 ft | 463 kts | 293° |
| 2026-05-04 14:20 | 49.55710 | 10.41642 | 37962 ft | 464 kts | 293° |
| 2026-05-04 14:20 | 49.61358 | 10.23895 | 37974 ft | 464 kts | 292° |
| 2026-05-04 14:21 | 49.69799 | 9.97130 | 37977 ft | 464 kts | 292° |
| 2026-05-04 14:21 | 49.74525 | 9.82022 | 37972 ft | 465 kts | 292° |
| 2026-05-04 14:22 | 49.80011 | 9.64363 | 37981 ft | 465 kts | 292° |
| 2026-05-04 14:22 | 49.85412 | 9.46855 | 37978 ft | 465 kts | 291° |
| 2026-05-04 14:23 | 49.93723 | 9.19665 | 37979 ft | 465 kts | 291° |
| 2026-05-04 14:24 | 49.98542 | 9.03760 | 37960 ft | 466 kts | 291° |
| 2026-05-04 14:24 | 50.03699 | 8.86627 | 37962 ft | 468 kts | 291° |
| 2026-05-04 14:25 | 50.07926 | 8.70409 | 37968 ft | 466 kts | 287° |
| 2026-05-04 14:25 | 50.14289 | 8.43501 | 37993 ft | 466 kts | 286° |
| 2026-05-04 14:26 | 50.18705 | 8.24528 | 37969 ft | 465 kts | 286° |
| 2026-05-04 14:26 | 50.23081 | 8.05562 | 37966 ft | 464 kts | 286° |
| 2026-05-04 14:27 | 50.25411 | 7.95400 | 37969 ft | 464 kts | 286° |
| 2026-05-04 14:27 | 50.29320 | 7.79239 | 37974 ft | 465 kts | 288° |
| 2026-05-04 14:28 | 50.34048 | 7.60757 | 37980 ft | 466 kts | 288° |
| 2026-05-04 14:28 | 50.38681 | 7.42927 | 37986 ft | 467 kts | 288° |
| 2026-05-04 14:29 | 50.48400 | 7.05021 | 38004 ft | 467 kts | 288° |
| 2026-05-04 14:30 | 50.53813 | 6.83645 | 37969 ft | 452 kts | 288° |
| 2026-05-04 14:30 | 50.58715 | 6.64073 | 37983 ft | 465 kts | 288° |
| 2026-05-04 14:31 | 50.61090 | 6.54542 | 37978 ft | 467 kts | 287° |
| 2026-05-04 14:32 | 50.70142 | 6.17819 | 37981 ft | 468 kts | 287° |
| 2026-05-04 14:32 | 50.74811 | 5.98636 | 37982 ft | 469 kts | 287° |
| 2026-05-04 14:33 | 50.79470 | 5.79326 | 37994 ft | 470 kts | 287° |
| 2026-05-04 14:33 | 50.83537 | 5.62332 | 38001 ft | 471 kts | 287° |
| 2026-05-04 14:34 | 50.87256 | 5.46668 | 37965 ft | 473 kts | 287° |
| 2026-05-04 14:34 | 50.92988 | 5.22310 | 37979 ft | 475 kts | 287° |
| 2026-05-04 14:34 | 50.95457 | 5.11796 | 37939 ft | 409 kts | 286° |
| 2026-05-04 14:35 | 50.97429 | 5.03267 | 37976 ft | 420 kts | 286° |
| 2026-05-04 14:35 | 50.99477 | 4.94363 | 37975 ft | 439 kts | 286° |
| 2026-05-04 14:35 | 51.01881 | 4.83921 | 37975 ft | 459 kts | 287° |
| 2026-05-04 14:35 | 51.04070 | 4.74379 | 37973 ft | 478 kts | 287° |
| 2026-05-04 14:36 | 51.06316 | 4.64551 | 37990 ft | 479 kts | 287° |
| 2026-05-04 14:36 | 51.10773 | 4.44907 | 37993 ft | 480 kts | 287° |
| 2026-05-04 14:37 | 51.15235 | 4.25034 | 37991 ft | 480 kts | 287° |
| 2026-05-04 14:37 | 51.19694 | 4.04984 | 37979 ft | 480 kts | 286° |
| 2026-05-04 14:38 | 51.24098 | 3.84985 | 37971 ft | 480 kts | 286° |
| 2026-05-04 14:38 | 51.28495 | 3.64830 | 37984 ft | 481 kts | 286° |
| 2026-05-04 14:39 | 51.31998 | 3.48636 | 37992 ft | 481 kts | 286° |
| 2026-05-04 14:39 | 51.36310 | 3.28950 | 37980 ft | 482 kts | 288° |
| 2026-05-04 14:40 | 51.42567 | 3.02776 | 37999 ft | 483 kts | 288° |
| 2026-05-04 14:40 | 51.45928 | 2.88434 | 37870 ft | 475 kts | 288° |
| 2026-05-04 14:41 | 51.47171 | 2.83107 | 37309 ft | 471 kts | 287° |
| 2026-05-04 14:42 | 51.48595 | 2.76985 | 36451 ft | 470 kts | 287° |
| 2026-05-04 14:42 | 51.49201 | 2.74371 | 36050 ft | 470 kts | 287° |
| 2026-05-04 14:43 | 51.50675 | 2.68004 | 35114 ft | 469 kts | 286° |
| 2026-05-04 14:43 | 51.52611 | 2.59619 | 33941 ft | 467 kts | 285° |
| 2026-05-04 14:43 | 51.54809 | 2.50050 | 32601 ft | 460 kts | 285° |
| 2026-05-04 14:43 | 51.56882 | 2.40990 | 31454 ft | 452 kts | 286° |
| 2026-05-04 14:44 | 51.58929 | 2.32006 | 30284 ft | 446 kts | 286° |
| 2026-05-04 14:44 | 51.61009 | 2.22844 | 29058 ft | 437 kts | 286° |
| 2026-05-04 14:44 | 51.63074 | 2.13708 | 27831 ft | 428 kts | 287° |
| 2026-05-04 14:44 | 51.65098 | 2.04710 | 26662 ft | 419 kts | 287° |
| 2026-05-04 14:45 | 51.67057 | 1.95961 | 25511 ft | 411 kts | 287° |
| 2026-05-04 14:45 | 51.68967 | 1.87393 | 25012 ft | 406 kts | 287° |
| 2026-05-04 14:45 | 51.70878 | 1.78789 | 25001 ft | 408 kts | 287° |
| 2026-05-04 14:45 | 51.72719 | 1.70466 | 25004 ft | 408 kts | 287° |
| 2026-05-04 14:46 | 51.74184 | 1.62830 | 24788 ft | 402 kts | 278° |
| 2026-05-04 14:46 | 51.74391 | 1.54843 | 23896 ft | 393 kts | 262° |
| 2026-05-04 14:46 | 51.73779 | 1.46021 | 22601 ft | 388 kts | 262° |
| 2026-05-04 14:46 | 51.73228 | 1.37409 | 21305 ft | 383 kts | 262° |
| 2026-05-04 14:47 | 51.72676 | 1.28921 | 20098 ft | 378 kts | 262° |
| 2026-05-04 14:47 | 51.72128 | 1.20655 | 18951 ft | 374 kts | 262° |
| 2026-05-04 14:47 | 51.71572 | 1.12369 | 17797 ft | 369 kts | 262° |
| 2026-05-04 14:47 | 51.71018 | 1.04203 | 16662 ft | 362 kts | 262° |
| 2026-05-04 14:48 | 51.70475 | 0.96277 | 15560 ft | 355 kts | 262° |
| 2026-05-04 14:48 | 51.69934 | 0.88457 | 14504 ft | 349 kts | 262° |
| 2026-05-04 14:48 | 51.69400 | 0.80834 | 13445 ft | 343 kts | 263° |
| 2026-05-04 14:48 | 51.68868 | 0.73286 | 12328 ft | 336 kts | 263° |
| 2026-05-04 14:49 | 51.68383 | 0.66464 | 11539 ft | 326 kts | 263° |
| 2026-05-04 14:49 | 51.67887 | 0.59548 | 11293 ft | 299 kts | 263° |
| 2026-05-04 14:49 | 51.67420 | 0.53093 | 10875 ft | 282 kts | 263° |
| 2026-05-04 14:49 | 51.66965 | 0.46847 | 10170 ft | 278 kts | 262° |
| 2026-05-04 14:50 | 51.66510 | 0.40660 | 9325 ft | 277 kts | 262° |
| 2026-05-04 14:50 | 51.66055 | 0.34534 | 8519 ft | 275 kts | 262° |
| 2026-05-04 14:50 | 51.65905 | 0.32508 | 8324 ft | 272 kts | 262° |
| 2026-05-04 14:50 | 51.65899 | 0.32432 | 8317 ft | 271 kts | 262° |
| 2026-05-04 14:51 | 51.65819 | 0.31351 | 8192 ft | 272 kts | 262° |
| 2026-05-04 14:51 | 51.65246 | 0.23696 | 7888 ft | 246 kts | 262° |
| 2026-05-04 14:51 | 51.64849 | 0.18453 | 7488 ft | 238 kts | 262° |
| 2026-05-04 14:51 | 51.64602 | 0.14905 | 7174 ft | 235 kts | 266° |
| 2026-05-04 14:52 | 51.64811 | 0.08488 | 6559 ft | 235 kts | 272° |
| 2026-05-04 14:52 | 51.64863 | 0.06708 | 6385 ft | 235 kts | 271° |
| 2026-05-04 14:52 | 51.65016 | 0.01349 | 5898 ft | 228 kts | 272° |
| 2026-05-04 14:52 | 51.65063 | -0.00336 | 5702 ft | 231 kts | 272° |
| 2026-05-04 14:53 | 51.65260 | -0.07284 | 4914 ft | 234 kts | 272° |
| 2026-05-04 14:53 | 51.65336 | -0.09971 | 4613 ft | 234 kts | 272° |
| 2026-05-04 14:53 | 51.65473 | -0.14913 | 4087 ft | 233 kts | 272° |
| 2026-05-04 14:53 | 51.64199 | -0.19514 | 3503 ft | 235 kts | 214° |
| 2026-05-04 14:54 | 51.61184 | -0.21190 | 3050 ft | 230 kts | 194° |
| 2026-05-04 14:54 | 51.58073 | -0.21995 | 3001 ft | 221 kts | 165° |
| 2026-05-04 14:54 | 51.55872 | -0.18923 | 2997 ft | 218 kts | 122° |
| 2026-05-04 14:54 | 51.54223 | -0.15039 | 2999 ft | 193 kts | 124° |
| 2026-05-04 14:55 | 51.52402 | -0.12365 | 2996 ft | 184 kts | 172° |
| 2026-05-04 14:55 | 51.49999 | -0.12924 | 2991 ft | 166 kts | 191° |
| 2026-05-04 14:55 | 51.48579 | -0.13856 | 2995 ft | 165 kts | 229° |
| 2026-05-04 14:55 | 51.47998 | -0.17261 | 2992 ft | 164 kts | 269° |
| 2026-05-04 14:56 | 51.47968 | -0.20907 | 2864 ft | 163 kts | 270° |
| 2026-05-04 14:56 | 51.47937 | -0.24506 | 2445 ft | 157 kts | 270° |
| 2026-05-04 14:56 | 51.47909 | -0.27921 | 2034 ft | 152 kts | 272° |
| 2026-05-04 14:56 | 51.47878 | -0.31311 | 1625 ft | 151 kts | 271° |
| 2026-05-04 14:57 | 51.47853 | -0.34546 | 1225 ft | 150 kts | 271° |
| 2026-05-04 14:57 | 51.47839 | -0.36225 | 1035 ft | 151 kts | 271° |
| 2026-05-04 14:57 | 51.47831 | -0.37342 | 872 ft | 150 kts | 272° |
| 2026-05-04 14:57 | 51.47823 | -0.38513 | 715 ft | 150 kts | 271° |
| 2026-05-04 14:58 | 51.47778 | -0.40161 | 512 ft | 146 kts | 271° |
| 2026-05-04 14:58 | 51.47762 | -0.41802 | 266 ft | 145 kts | 274° |
| 2026-05-04 14:58 | 51.47772 | -0.42852 | 163 ft | 146 kts | 272° |
| 2026-05-04 14:58 | 51.47742 | -0.44309 | 92 ft | 129 kts | 275° |
| 2026-05-04 14:59 | 51.47787 | -0.45935 | 424 ft | 157 kts | 275° |
| 2026-05-04 14:59 | 51.47849 | -0.47758 | 1039 ft | 172 kts | 272° |
| 2026-05-04 14:59 | 51.47767 | -0.50369 | 1573 ft | 192 kts | 266° |
| 2026-05-04 15:00 | 51.47700 | -0.52577 | 1724 ft | 204 kts | 279° |
| 2026-05-04 15:00 | 51.48285 | -0.54644 | 1840 ft | 210 kts | 313° |
| 2026-05-04 15:00 | 51.49493 | -0.55901 | 1991 ft | 210 kts | 345° |
| 2026-05-04 15:01 | 51.51636 | -0.56117 | 2345 ft | 211 kts | 359° |
| 2026-05-04 15:01 | 51.53122 | -0.56195 | 2560 ft | 212 kts | 359° |
| 2026-05-04 15:01 | 51.54599 | -0.56272 | 2773 ft | 213 kts | 359° |
| 2026-05-04 15:01 | 51.55605 | -0.56328 | 2929 ft | 212 kts | 359° |
| 2026-05-04 15:02 | 51.57073 | -0.56496 | 3079 ft | 213 kts | 345° |
| 2026-05-04 15:02 | 51.57975 | -0.57262 | 3235 ft | 212 kts | 328° |
| 2026-05-04 15:02 | 51.59322 | -0.58124 | 3348 ft | 212 kts | 356° |
| 2026-05-04 15:02 | 51.60743 | -0.57639 | 3534 ft | 213 kts | 28° |
| 2026-05-04 15:03 | 51.61503 | -0.56588 | 3661 ft | 213 kts | 52° |
| 2026-05-04 15:03 | 51.62032 | -0.54377 | 3880 ft | 216 kts | 84° |
| 2026-05-04 15:03 | 51.61836 | -0.51973 | 4013 ft | 218 kts | 101° |
| 2026-05-04 15:03 | 51.61565 | -0.50049 | 3999 ft | 218 kts | 102° |
| 2026-05-04 15:04 | 51.61258 | -0.47926 | 3998 ft | 218 kts | 102° |
| 2026-05-04 15:04 | 51.60918 | -0.45546 | 4002 ft | 218 kts | 102° |
| 2026-05-04 15:04 | 51.60675 | -0.43811 | 3974 ft | 215 kts | 102° |
| 2026-05-04 15:04 | 51.60540 | -0.42834 | 3860 ft | 213 kts | 101° |
| 2026-05-04 15:05 | 51.60300 | -0.41098 | 3472 ft | 211 kts | 101° |
| 2026-05-04 15:05 | 51.60015 | -0.39020 | 3111 ft | 211 kts | 100° |
| 2026-05-04 15:05 | 51.59702 | -0.36699 | 3001 ft | 213 kts | 100° |
| 2026-05-04 15:05 | 51.59451 | -0.34839 | 3002 ft | 213 kts | 100° |
| 2026-05-04 15:06 | 51.59331 | -0.33958 | 3000 ft | 214 kts | 100° |
| 2026-05-04 15:06 | 51.58995 | -0.31475 | 3000 ft | 212 kts | 100° |
| 2026-05-04 15:06 | 51.58694 | -0.29276 | 3003 ft | 214 kts | 100° |
| 2026-05-04 15:07 | 51.58082 | -0.24787 | 2998 ft | 213 kts | 101° |
| 2026-05-04 15:07 | 51.57788 | -0.23040 | 2991 ft | 213 kts | 108° |
| 2026-05-04 15:07 | 51.57135 | -0.21133 | 3001 ft | 215 kts | 125° |
| 2026-05-04 15:07 | 51.56216 | -0.19252 | 2999 ft | 216 kts | 126° |
| 2026-05-04 15:08 | 51.55453 | -0.17636 | 2998 ft | 217 kts | 125° |
| 2026-05-04 15:08 | 51.54801 | -0.16234 | 2993 ft | 217 kts | 124° |
| 2026-05-04 15:08 | 51.54329 | -0.15208 | 2997 ft | 216 kts | 125° |
| 2026-05-04 15:08 | 51.53553 | -0.13532 | 2992 ft | 217 kts | 126° |
| 2026-05-04 15:09 | 51.52966 | -0.12575 | 2981 ft | 220 kts | 143° |
| 2026-05-04 15:09 | 51.52279 | -0.12057 | 2995 ft | 219 kts | 164° |
| 2026-05-04 15:10 | 51.50672 | -0.11989 | 3003 ft | 221 kts | 185° |
| 2026-05-04 15:10 | 51.49324 | -0.12292 | 2992 ft | 221 kts | 188° |
| 2026-05-04 15:10 | 51.46946 | -0.14851 | 2832 ft | 215 kts | 255° |
| 2026-05-04 15:11 | 51.46739 | -0.17225 | 3056 ft | 214 kts | 268° |
| 2026-05-04 15:11 | 51.46705 | -0.18775 | 2992 ft | 215 kts | 270° |
| 2026-05-04 15:11 | 51.46704 | -0.19435 | 2991 ft | 216 kts | 271° |
| 2026-05-04 15:11 | 51.46704 | -0.19632 | 2992 ft | 217 kts | 271° |
| 2026-05-04 15:12 | 51.46698 | -0.21168 | 2997 ft | 219 kts | 270° |
| 2026-05-04 15:12 | 51.46681 | -0.22302 | 3007 ft | 222 kts | 270° |
| 2026-05-04 15:12 | 51.46674 | -0.22729 | 3071 ft | 221 kts | 269° |
| 2026-05-04 15:13 | 51.46634 | -0.24441 | 3539 ft | 209 kts | 268° |
| 2026-05-04 15:13 | 51.46582 | -0.26663 | 4251 ft | 190 kts | 269° |
| 2026-05-04 15:13 | 51.46548 | -0.28649 | 4901 ft | 173 kts | 269° |
| 2026-05-04 15:13 | 51.46528 | -0.30567 | 5299 ft | 173 kts | 269° |
| 2026-05-04 15:14 | 51.46520 | -0.31859 | 5516 ft | 174 kts | 269° |
| 2026-05-04 15:14 | 51.46515 | -0.33541 | 5791 ft | 175 kts | 270° |
| 2026-05-04 15:14 | 51.46538 | -0.34141 | 5895 ft | 176 kts | 278° |
| 2026-05-04 15:14 | 51.46748 | -0.35231 | 6069 ft | 177 kts | 294° |
| 2026-05-04 15:15 | 51.47445 | -0.36607 | 6387 ft | 178 kts | 317° |
| 2026-05-04 15:15 | 51.48149 | -0.37291 | 6479 ft | 182 kts | 339° |
| 2026-05-04 15:15 | 51.49505 | -0.37390 | 6382 ft | 187 kts | 4° |
| 2026-05-04 15:16 | 51.51003 | -0.37216 | 6048 ft | 188 kts | 5° |
| 2026-05-04 15:16 | 51.51006 | -0.37215 | 6047 ft | 188 kts | 5° |
| 2026-05-04 15:16 | 51.52748 | -0.35616 | 5021 ft | 202 kts | 56° |
| 2026-05-04 15:17 | 51.53165 | -0.33476 | 4193 ft | 208 kts | 90° |
| 2026-05-04 15:17 | 51.52678 | -0.28997 | 3100 ft | 202 kts | 94° |
| 2026-05-04 15:17 | 51.52554 | -0.26825 | 3006 ft | 205 kts | 94° |
| 2026-05-04 15:18 | 51.52423 | -0.24542 | 2996 ft | 206 kts | 94° |
| 2026-05-04 15:18 | 51.52389 | -0.22248 | 2992 ft | 204 kts | 78° |
| 2026-05-04 15:18 | 51.52739 | -0.20111 | 2998 ft | 205 kts | 72° |
| 2026-05-04 15:19 | 51.53539 | -0.15695 | 2996 ft | 206 kts | 73° |
| 2026-05-04 15:19 | 51.53851 | -0.13921 | 2995 ft | 205 kts | 73° |
| 2026-05-04 15:19 | 51.53203 | -0.09804 | 2993 ft | 212 kts | 143° |
| 2026-05-04 15:20 | 51.53057 | -0.09653 | 2992 ft | 212 kts | 149° |
| 2026-05-04 15:20 | 51.52036 | -0.09198 | 3003 ft | 217 kts | 176° |
| 2026-05-04 15:20 | 51.50529 | -0.09391 | 2995 ft | 217 kts | 187° |
| 2026-05-04 15:20 | 51.49100 | -0.09742 | 2987 ft | 205 kts | 188° |
| 2026-05-04 15:21 | 51.47779 | -0.10441 | 2980 ft | 196 kts | 217° |
| 2026-05-04 15:21 | 51.47013 | -0.12130 | 2995 ft | 193 kts | 251° |
| 2026-05-04 15:21 | 51.46731 | -0.16323 | 2995 ft | 190 kts | 271° |
| 2026-05-04 15:22 | 51.46732 | -0.17039 | 2997 ft | 189 kts | 271° |
| 2026-05-04 15:22 | 51.46707 | -0.19445 | 2993 ft | 189 kts | 270° |
| 2026-05-04 15:22 | 51.46672 | -0.23461 | 2577 ft | 170 kts | 270° |
| 2026-05-04 15:23 | 51.46656 | -0.25346 | 2362 ft | 168 kts | 270° |
| 2026-05-04 15:23 | 51.46640 | -0.27192 | 2125 ft | 162 kts | 270° |
| 2026-05-04 15:23 | 51.46633 | -0.28021 | 2026 ft | 157 kts | 271° |
| 2026-05-04 15:23 | 51.46625 | -0.29187 | 1882 ft | 154 kts | 272° |
| 2026-05-04 15:24 | 51.46604 | -0.31285 | 1634 ft | 151 kts | 272° |
| 2026-05-04 15:24 | 51.46589 | -0.33671 | 1346 ft | 150 kts | 272° |
| 2026-05-04 15:25 | 51.46573 | -0.35044 | 1184 ft | 150 kts | 271° |
| 2026-05-04 15:25 | 51.46564 | -0.36720 | 964 ft | 150 kts | 271° |
| 2026-05-04 15:25 | 51.46561 | -0.36879 | 926 ft | 150 kts | 271° |
| 2026-05-04 15:26 | 51.46534 | -0.37726 | 802 ft | 145 kts | 269° |
| 2026-05-04 15:26 | 51.46482 | -0.40569 | 417 ft | 144 kts | 273° |
| 2026-05-04 15:27 | 51.46489 | -0.42171 | 209 ft | 144 kts | 272° |
| 2026-05-04 15:27 | 51.46494 | -0.44454 | 94 ft | 128 kts | 271° |
| 2026-05-04 15:28 | 51.46523 | -0.45730 | 91 ft | 50 kts | 294° |
| 2026-05-04 15:28 | 51.46586 | -0.45874 | 94 ft | 0 kts | 324° |
| 2026-05-04 15:28 | 51.46591 | -0.45881 | 94 ft | 5 kts | 324° |
| 2026-05-04 15:29 | 51.46630 | -0.45919 | 95 ft | 13 kts | 346° |
| 2026-05-04 15:30 | 51.46663 | -0.45359 | 91 ft | 12 kts | 89° |
| 2026-05-04 15:30 | 51.46667 | -0.44822 | 92 ft | 24 kts | 89° |
| 2026-05-04 15:31 | 51.46667 | -0.44735 | 91 ft | 8 kts | 89° |
| 2026-05-04 15:31 | 51.46670 | -0.44535 | 91 ft | 32 kts | 89° |